Home > Products > Valid Products > TAF

000
FTUS41 KCTP 231207 AAA
TAFBFD
TAF AMD
KBFD 231207Z 2312/2412 VRB03KT P6SM SKC
     FM231300 VRB04KT P6SM FEW035=



000
FTUS41 KCTP 231207 AAA
TAFBFD
TAF AMD
KBFD 231207Z 2312/2412 VRB03KT P6SM SKC
     FM231300 VRB04KT P6SM FEW035=



000
FTUS41 KCTP 231206 AAA
TAFJST
TAF AMD
KJST 231206Z 2312/2412 VRB04KT P6SM SKC=



000
FTUS41 KCTP 231206 AAA
TAFJST
TAF AMD
KJST 231206Z 2312/2412 VRB04KT P6SM SKC=



000
FTUS41 KCTP 231123
TAFAOO
TAF
KAOO 231123Z 2312/2412 VRB03KT P6SM SKC=



000
FTUS41 KCTP 231123
TAFIPT
TAF
KIPT 231123Z 2312/2412 VRB03KT P6SM SKC
      TEMPO 2312/2313 P6SM BKN004=



000
FTUS41 KCTP 231123
TAFUNV
TAF
KUNV 231123Z 2312/2412 VRB03KT P6SM SKC=



000
FTUS41 KCTP 231123
TAFJST
TAF
KJST 231123Z 2312/2412 VRB04KT P6SM SKC
      TEMPO 2312/2313 VRB04KT 3/4SM BR BKN001=



000
FTUS41 KCTP 231123
TAFMDT
TAF
KMDT 231123Z 2312/2412 32005KT P6SM SKC=



000
FTUS41 KCTP 231123
TAFMDT
TAF
KMDT 231123Z 2312/2412 32005KT P6SM SKC=



000
FTUS41 KCTP 231123
TAFBFD
TAF
KBFD 231123Z 2312/2412 VRB03KT P6SM SKC
      TEMPO 2312/2313 VRB03KT 1SM BR BKN003
     FM231300 VRB04KT P6SM FEW035=



000
FTUS41 KCTP 230918 AAA
TAFMDT
TAF AMD
KMDT 230918Z 2309/2406 32005KT P6SM SKC
     FM231500 33005KT P6SM FEW050
     FM240000 00000KT P6SM SKC=



000
FTUS41 KCTP 230918 AAA
TAFMDT
TAF AMD
KMDT 230918Z 2309/2406 32005KT P6SM SKC
     FM231500 33005KT P6SM FEW050
     FM240000 00000KT P6SM SKC=



000
FTUS41 KCTP 230918 AAA
TAFIPT
TAF AMD
KIPT 230918Z 2309/2406 VRB03KT P6SM VCFG SKC
     FM231400 VRB03KT P6SM FEW050=



000
FTUS41 KCTP 230918 AAA
TAFIPT
TAF AMD
KIPT 230918Z 2309/2406 VRB03KT P6SM VCFG SKC
     FM231400 VRB03KT P6SM FEW050=



000
FTUS41 KCTP 230917 AAA
TAFUNV
TAF AMD
KUNV 230917Z 2309/2406 VRB03KT P6SM VCFG SKC
     FM231300 32004KT P6SM FEW040=



000
FTUS41 KCTP 230917 AAA
TAFUNV
TAF AMD
KUNV 230917Z 2309/2406 VRB03KT P6SM VCFG SKC
     FM231300 32004KT P6SM FEW040=



000
FTUS41 KCTP 230916 AAA
TAFAOO
TAF AMD
KAOO 230916Z 2309/2406 VRB02KT P6SM VCFG SKC
     FM231300 32005KT P6SM FEW040=



000
FTUS41 KCTP 230916 AAA
TAFJST
TAF AMD
KJST 230916Z 2309/2406 VRB04KT P6SM SKC=



000
FTUS41 KCTP 230916 AAA
TAFJST
TAF AMD
KJST 230916Z 2309/2406 VRB04KT P6SM SKC=



000
FTUS41 KCTP 230915 AAB
TAFBFD
TAF AMD
KBFD 230915Z 2309/2406 VRB03KT P6SM SKC
      TEMPO 2310/2313 VRB03KT 3/4SM BR BKN001
     FM231300 29005KT P6SM FEW035=



000
FTUS41 KCTP 230915 AAB
TAFBFD
TAF AMD
KBFD 230915Z 2309/2406 VRB03KT P6SM SKC
      TEMPO 2310/2313 VRB03KT 3/4SM BR BKN001
     FM231300 29005KT P6SM FEW035=



000
FTUS41 KCTP 230836 AAA
TAFBFD
TAF AMD
KBFD 230836Z 2309/2406 28005KT 3/4SM BR BKN001
     FM231300 29005KT P6SM FEW035=



000
FTUS41 KCTP 230836 AAA
TAFBFD
TAF AMD
KBFD 230836Z 2309/2406 28005KT 3/4SM BR BKN001
     FM231300 29005KT P6SM FEW035=



000
FTUS41 KCTP 230520
TAFUNV
TAF
KUNV 230520Z 2306/2406 28004KT P6SM SKC
     FM230900 VRB03KT P6SM VCFG SKC
     FM231300 32004KT P6SM FEW040=



000
FTUS41 KCTP 230520
TAFMDT
TAF
KMDT 230520Z 2306/2406 32005KT P6SM SKC
     FM231500 33005KT P6SM FEW050
     FM240000 00000KT P6SM SKC=



000
FTUS41 KCTP 230520
TAFIPT
TAF
KIPT 230520Z 2306/2406 32004KT P6SM SKC
     FM230900 VRB02KT P6SM VCFG SCT004
     FM231400 VRB03KT P6SM FEW050=



000
FTUS41 KCTP 230520
TAFAOO
TAF
KAOO 230520Z 2306/2406 VRB04KT P6SM SKC
     FM230900 VRB02KT P6SM VCFG SKC
     FM231300 32005KT P6SM FEW040=



000
FTUS41 KCTP 230520
TAFJST
TAF
KJST 230520Z 2306/2406 30005KT P6SM SKC=



000
FTUS41 KCTP 230520
TAFBFD
TAF
KBFD 230520Z 2306/2406 28005KT P6SM SKC
     FM230900 VRB02KT 3SM BR VCFG SKC
     FM231300 29005KT P6SM FEW035=



000
FTUS41 KCTP 230520
TAFUNV
TAF
KUNV 230520Z 2306/2406 28004KT P6SM SKC
     FM230900 VRB03KT P6SM VCFG SKC
     FM231300 32004KT P6SM FEW040=



000
FTUS41 KCTP 230520
TAFIPT
TAF
KIPT 230520Z 2306/2406 32004KT P6SM SKC
     FM230900 VRB02KT P6SM VCFG SCT004
     FM231400 VRB03KT P6SM FEW050=



000
FTUS41 KCTP 230520
TAFAOO
TAF
KAOO 230520Z 2306/2406 VRB04KT P6SM SKC
     FM230900 VRB02KT P6SM VCFG SKC
     FM231300 32005KT P6SM FEW040=



000
FTUS41 KCTP 230520
TAFBFD
TAF
KBFD 230520Z 2306/2406 28005KT P6SM SKC
     FM230900 VRB02KT 3SM BR VCFG SKC
     FM231300 29005KT P6SM FEW035=



000
FTUS41 KCTP 230520
TAFMDT
TAF
KMDT 230520Z 2306/2406 32005KT P6SM SKC
     FM231500 33005KT P6SM FEW050
     FM240000 00000KT P6SM SKC=



000
FTUS41 KCTP 230520
TAFJST
TAF
KJST 230520Z 2306/2406 30005KT P6SM SKC=



000
FTUS41 KCTP 230344 AAA
TAFUNV
TAF AMD
KUNV 230344Z 2304/2324 29005KT P6SM SCT035
     FM230600 28004KT P6SM SKC
     FM230900 VRB03KT P6SM VCFG SKC
     FM231300 32004KT P6SM FEW040=



000
FTUS41 KCTP 230344 AAA
TAFBFD
TAF AMD
KBFD 230344Z 2304/2324 28005KT P6SM SKC
     FM230600 VRB02KT 3SM BR VCFG SKC
     FM231300 29005KT P6SM FEW035=



000
FTUS41 KCTP 230344 AAA
TAFIPT
TAF AMD
KIPT 230344Z 2304/2324 27004KT P6SM SKC
     FM230900 VRB02KT P6SM VCFG SCT004
     FM231400 VRB03KT P6SM FEW050=



000
FTUS41 KCTP 230344 AAA
TAFAOO
TAF AMD
KAOO 230344Z 2304/2324 33005KT P6SM BKN035
     FM230600 VRB04KT P6SM SKC
     FM230900 VRB02KT P6SM VCFG SKC
     FM231300 32005KT P6SM FEW040=



000
FTUS41 KCTP 230344 AAA
TAFMDT
TAF AMD
KMDT 230344Z 2304/2324 31010KT P6SM SCT045
     FM230600 32005KT P6SM SKC
     FM231500 33005KT P6SM FEW050=



000
FTUS41 KCTP 230344 AAA
TAFJST
TAF AMD
KJST 230344Z 2304/2324 34005KT P6SM SCT025
     FM230600 VRB04KT P6SM SKC
     FM231500 32005KT P6SM FEW035=



000
FTUS41 KCTP 230344 AAA
TAFMDT
TAF AMD
KMDT 230344Z 2304/2324 31010KT P6SM SCT045
     FM230600 32005KT P6SM SKC
     FM231500 33005KT P6SM FEW050=



000
FTUS41 KCTP 222334
TAFIPT
TAF
KIPT 222334Z 2300/2324 29010KT P6SM BKN050
     FM230300 29005KT P6SM SCT050
     FM230900 VRB02KT P6SM VCFG SCT004
     FM231400 VRB03KT P6SM FEW050=



000
FTUS41 KCTP 222334
TAFMDT
TAF
KMDT 222334Z 2300/2324 31010KT P6SM SCT250
     FM230600 32005KT P6SM SKC
     FM231500 33005KT P6SM FEW050=



000
FTUS41 KCTP 222334
TAFIPT
TAF
KIPT 222334Z 2300/2324 29010KT P6SM BKN050
     FM230300 29005KT P6SM SCT050
     FM230900 VRB02KT P6SM VCFG SCT004
     FM231400 VRB03KT P6SM FEW050=



000
FTUS41 KCTP 222334
TAFAOO
TAF
KAOO 222334Z 2300/2324 31010G15KT P6SM OVC035
     FM230300 30008KT P6SM BKN035
     FM230600 31004KT P6SM SCT035
     FM230900 VRB02KT P6SM VCFG FEW035
     FM231300 32005KT P6SM FEW040=



000
FTUS41 KCTP 222334
TAFBFD
TAF
KBFD 222334Z 2300/2324 30008KT P6SM OVC025
     FM230300 29005KT P6SM BKN025
     FM230600 VRB02KT P6SM VCFG SCT025
     FM231300 30005KT P6SM FEW035=



000
FTUS41 KCTP 222334
TAFUNV
TAF
KUNV 222334Z 2300/2324 30008KT P6SM OVC040
     FM230300 29005KT P6SM BKN040
     FM230600 28004KT P6SM SCT035
     FM230900 VRB03KT P6SM VCFG FEW035
     FM231300 32004KT P6SM FEW040=



000
FTUS41 KCTP 222334
TAFMDT
TAF
KMDT 222334Z 2300/2324 31010KT P6SM SCT250
     FM230600 32005KT P6SM SKC
     FM231500 33005KT P6SM FEW050=



000
FTUS41 KCTP 222334
TAFJST
TAF
KJST 222334Z 2300/2324 30010KT P6SM OVC030
     FM230300 30008KT P6SM BKN025
     FM230600 27004KT P6SM SKC
     FM231500 32005KT P6SM FEW035=



000
FTUS41 KCTP 222334
TAFBFD
TAF
KBFD 222334Z 2300/2324 30008KT P6SM OVC025
     FM230300 29005KT P6SM BKN025
     FM230600 VRB02KT P6SM VCFG SCT025
     FM231300 30005KT P6SM FEW035=



000
FTUS41 KCTP 222334
TAFJST
TAF
KJST 222334Z 2300/2324 30010KT P6SM OVC030
     FM230300 30008KT P6SM BKN025
     FM230600 27004KT P6SM SKC
     FM231500 32005KT P6SM FEW035=



000
FTUS41 KCTP 222334
TAFUNV
TAF
KUNV 222334Z 2300/2324 30008KT P6SM OVC040
     FM230300 29005KT P6SM BKN040
     FM230600 28004KT P6SM SCT035
     FM230900 VRB03KT P6SM VCFG FEW035
     FM231300 32004KT P6SM FEW040=



000
FTUS41 KCTP 222334
TAFAOO
TAF
KAOO 222334Z 2300/2324 31010G15KT P6SM OVC035
     FM230300 30008KT P6SM BKN035
     FM230600 31004KT P6SM SCT035
     FM230900 VRB02KT P6SM VCFG FEW035
     FM231300 32005KT P6SM FEW040=



000
FTUS41 KCTP 222121 AAA
TAFJST
TAF AMD
KJST 222121Z 2221/2318 28010G15KT P6SM BKN025
     FM230000 30008KT P6SM SCT025
     FM230600 28004KT P6SM SKC
     FM231500 31005KT P6SM FEW030=



000
FTUS41 KCTP 222121 AAB
TAFUNV
TAF AMD
KUNV 222121Z 2221/2318 30008G15KT P6SM BKN040
     FM230000 29007KT P6SM SCT040
     FM230600 VRB03KT 6SM BR VCFG SKC
     FM231300 32004KT P6SM FEW040=



000
FTUS41 KCTP 222121 AAA
TAFJST
TAF AMD
KJST 222121Z 2221/2318 28010G15KT P6SM BKN025
     FM230000 30008KT P6SM SCT025
     FM230600 28004KT P6SM SKC
     FM231500 31005KT P6SM FEW030=



000
FTUS41 KCTP 222121 AAA
TAFAOO
TAF AMD
KAOO 222121Z 2221/2318 31010KT P6SM BKN035
     FM230000 30007KT P6SM SCT035
     FM230600 VRB03KT 6SM BR VCFG SKC
     FM231300 32005KT P6SM FEW040=



000
FTUS41 KCTP 222121 AAC
TAFBFD
TAF AMD
KBFD 222121Z 2221/2318 30010KT P6SM OVC025
     FM230000 29005KT P6SM BKN025
     FM230500 VRB02KT 3SM BR VCFG SCT015
     FM231300 30005KT P6SM FEW030=



000
FTUS41 KCTP 222121 AAA
TAFMDT
TAF AMD
KMDT 222121Z 2221/2318 31012G18KT P6SM SKC
     FM230000 31008KT P6SM SKC
     FM230600 32004KT P6SM SKC=



000
FTUS41 KCTP 222121 AAA
TAFMDT
TAF AMD
KMDT 222121Z 2221/2318 31012G18KT P6SM SKC
     FM230000 31008KT P6SM SKC
     FM230600 32004KT P6SM SKC=



000
FTUS41 KCTP 222121 AAB
TAFUNV
TAF AMD
KUNV 222121Z 2221/2318 30008G15KT P6SM BKN040
     FM230000 29007KT P6SM SCT040
     FM230600 VRB03KT 6SM BR VCFG SKC
     FM231300 32004KT P6SM FEW040=



000
FTUS41 KCTP 222121 AAA
TAFIPT
TAF AMD
KIPT 222121Z 2221/2318 29010G15KT P6SM SCT050
     FM222300 29005KT P6SM SKC
     FM230900 VRB02KT 5SM BR VCFG SCT004
     FM231400 VRB03KT P6SM FEW050=



000
FTUS41 KCTP 222121 AAA
TAFAOO
TAF AMD
KAOO 222121Z 2221/2318 31010KT P6SM BKN035
     FM230000 30007KT P6SM SCT035
     FM230600 VRB03KT 6SM BR VCFG SKC
     FM231300 32005KT P6SM FEW040=



000
FTUS41 KCTP 222121 AAC
TAFBFD
TAF AMD
KBFD 222121Z 2221/2318 30010KT P6SM OVC025
     FM230000 29005KT P6SM BKN025
     FM230500 VRB02KT 3SM BR VCFG SCT015
     FM231300 30005KT P6SM FEW030=



000
FTUS41 KCTP 222121 AAA
TAFIPT
TAF AMD
KIPT 222121Z 2221/2318 29010G15KT P6SM SCT050
     FM222300 29005KT P6SM SKC
     FM230900 VRB02KT 5SM BR VCFG SCT004
     FM231400 VRB03KT P6SM FEW050=



000
FTUS41 KCTP 221913 AAB
TAFBFD
TAF AMD
KBFD 221913Z 2219/2318 29009G15KT P6SM VCSH SCT017 BKN025
     FM222300 30008KT P6SM SCT030
     FM230500 29005KT P6SM BKN025
     FM231000 VRB03KT 5SM BR SCT025
     FM231230 28005KT P6SM BKN025=



000
FTUS41 KCTP 221913 AAB
TAFBFD
TAF AMD
KBFD 221913Z 2219/2318 29009G15KT P6SM VCSH SCT017 BKN025
     FM222300 30008KT P6SM SCT030
     FM230500 29005KT P6SM BKN025
     FM231000 VRB03KT 5SM BR SCT025
     FM231230 28005KT P6SM BKN025=



000
FTUS41 KCTP 221848 AAA
TAFBFD
TAF AMD
KBFD 221848Z 2219/2318 29009G15KT P6SM VCSH BKN017 OVC025
     FM222200 30008KT P6SM SCT017 BKN025
     FM230500 29005KT P6SM BKN025
     FM231000 VRB03KT 5SM BR SCT025
     FM231230 28005KT P6SM BKN025=



000
FTUS41 KCTP 221848 AAA
TAFBFD
TAF AMD
KBFD 221848Z 2219/2318 29009G15KT P6SM VCSH BKN017 OVC025
     FM222200 30008KT P6SM SCT017 BKN025
     FM230500 29005KT P6SM BKN025
     FM231000 VRB03KT 5SM BR SCT025
     FM231230 28005KT P6SM BKN025=



000
FTUS41 KCTP 221847 AAA
TAFUNV
TAF AMD
KUNV 221847Z 2219/2318 27013G17KT P6SM BKN035 OVC045
     FM222300 29007KT P6SM BKN045
     FM230500 31005KT P6SM SKC
     FM230800 VRB02KT P6SM VCFG SCT008
     FM231300 VRB03KT P6SM FEW060=



000
FTUS41 KCTP 221738
TAFIPT
TAF
KIPT 221738Z 2218/2318 32010G15KT P6SM BKN040 OVC050
     FM230000 28007KT P6SM SCT045
     FM230800 VRB02KT P6SM VCFG SCT008
      TEMPO 2309/2312 1SM BR BKN008
     FM231330 VRB03KT P6SM FEW060=



000
FTUS41 KCTP 221738
TAFAOO
TAF
KAOO 221738Z 2218/2318 32010G17KT P6SM VCSH SCT025 OVC035
     FM230300 31008G16KT P6SM SCT028
     FM230600 31005KT P6SM FEW070
     FM231000 VRB03KT P6SM FEW060=



000
FTUS41 KCTP 221738
TAFMDT
TAF
KMDT 221738Z 2218/2318 31015G25KT P6SM SCT040
     FM222200 30011KT P6SM FEW050
     FM230200 32006KT P6SM SKC
     FM230600 33003KT P6SM SKC=



000
FTUS41 KCTP 221738
TAFMDT
TAF
KMDT 221738Z 2218/2318 31015G25KT P6SM SCT040
     FM222200 30011KT P6SM FEW050
     FM230200 32006KT P6SM SKC
     FM230600 33003KT P6SM SKC=



000
FTUS41 KCTP 221738
TAFUNV
TAF
KUNV 221738Z 2218/2318 29013G17KT P6SM BKN030 OVC040
     FM222300 30007KT P6SM BKN035
     FM230500 33005KT P6SM SKC
     FM230800 VRB02KT P6SM VCFG SCT008
     FM231300 VRB03KT P6SM FEW060=



000
FTUS41 KCTP 221738
TAFJST
TAF
KJST 221738Z 2218/2318 31015G22KT P6SM SCT014 OVC030
     FM230100 32007KT P6SM BKN022
     FM230700 28006KT P6SM SCT023
     FM231000 VRB03KT P6SM SCT023=



000
FTUS41 KCTP 221738
TAFAOO
TAF
KAOO 221738Z 2218/2318 32010G17KT P6SM VCSH SCT025 OVC035
     FM230300 31008G16KT P6SM SCT028
     FM230600 31005KT P6SM FEW070
     FM231000 VRB03KT P6SM FEW060=



000
FTUS41 KCTP 221738
TAFBFD
TAF
KBFD 221738Z 2218/2318 31009G15KT P6SM VCSH BKN016 OVC025
     FM222200 30008G14KT P6SM SCT016 BKN025
     FM230500 29005KT P6SM BKN025
     FM231000 VRB03KT 5SM BR SCT025
     FM231230 28005KT P6SM BKN025=



000
FTUS41 KCTP 221738
TAFBFD
TAF
KBFD 221738Z 2218/2318 31009G15KT P6SM VCSH BKN016 OVC025
     FM222200 30008G14KT P6SM SCT016 BKN025
     FM230500 29005KT P6SM BKN025
     FM231000 VRB03KT 5SM BR SCT025
     FM231230 28005KT P6SM BKN025=



000
FTUS41 KCTP 221738
TAFUNV
TAF
KUNV 221738Z 2218/2318 29013G17KT P6SM BKN030 OVC040
     FM222300 30007KT P6SM BKN035
     FM230500 33005KT P6SM SKC
     FM230800 VRB02KT P6SM VCFG SCT008
     FM231300 VRB03KT P6SM FEW060=



000
FTUS41 KCTP 221738
TAFIPT
TAF
KIPT 221738Z 2218/2318 32010G15KT P6SM BKN040 OVC050
     FM230000 28007KT P6SM SCT045
     FM230800 VRB02KT P6SM VCFG SCT008
      TEMPO 2309/2312 1SM BR BKN008
     FM231330 VRB03KT P6SM FEW060=



000
FTUS41 KCTP 221738
TAFJST
TAF
KJST 221738Z 2218/2318 31015G22KT P6SM SCT014 OVC030
     FM230100 32007KT P6SM BKN022
     FM230700 28006KT P6SM SCT023
     FM231000 VRB03KT P6SM SCT023=



000
FTUS41 KCTP 221707 AAC
TAFBFD
TAF AMD
KBFD 221707Z 2217/2312 31009G15KT P6SM VCSH BKN016 OVC025
     FM222200 32008G14KT P6SM SCT016 BKN028
     FM230000 30005KT P6SM BKN030
     FM231000 VRB03KT 5SM BR SCT030=



000
FTUS41 KCTP 221707 AAC
TAFBFD
TAF AMD
KBFD 221707Z 2217/2312 31009G15KT P6SM VCSH BKN016 OVC025
     FM222200 32008G14KT P6SM SCT016 BKN028
     FM230000 30005KT P6SM BKN030
     FM231000 VRB03KT 5SM BR SCT030=



000
FTUS41 KCTP 221701 AAD
TAFUNV
TAF AMD
KUNV 221701Z 2217/2312 29013G17KT P6SM BKN030 OVC040
     FM222300 30007KT P6SM BKN035
     FM230500 33005KT P6SM SKC
     FM230800 VRB02KT P6SM VCFG SCT008=



000
FTUS41 KCTP 221701 AAD
TAFUNV
TAF AMD
KUNV 221701Z 2217/2312 29013G17KT P6SM BKN030 OVC040
     FM222300 30007KT P6SM BKN035
     FM230500 33005KT P6SM SKC
     FM230800 VRB02KT P6SM VCFG SCT008=



000
FTUS41 KCTP 221641 AAG
TAFJST
TAF AMD
KJST 221641Z 2217/2312 31012G17KT P6SM SCT010 OVC026
     FM230000 32007KT P6SM BKN027=



000
FTUS41 KCTP 221641 AAG
TAFJST
TAF AMD
KJST 221641Z 2217/2312 31012G17KT P6SM SCT010 OVC026
     FM230000 32007KT P6SM BKN027=



000
FTUS41 KCTP 221630 AAB
TAFIPT
TAF AMD
KIPT 221630Z 2217/2312 32010G15KT P6SM BKN040
     FM230000 28007KT P6SM SCT045
     FM230800 VRB02KT P6SM VCFG SCT008
      TEMPO 2309/2312 1SM BR BKN008=



000
FTUS41 KCTP 221630 AAB
TAFIPT
TAF AMD
KIPT 221630Z 2217/2312 32010G15KT P6SM BKN040
     FM230000 28007KT P6SM SCT045
     FM230800 VRB02KT P6SM VCFG SCT008
      TEMPO 2309/2312 1SM BR BKN008=



000
FTUS41 KCTP 221630 AAC
TAFUNV
TAF AMD
KUNV 221630Z 2217/2312 30011G16KT P6SM BKN035 OVC040
     FM222300 30007KT P6SM BKN035
     FM230500 33005KT P6SM SKC
     FM230800 VRB02KT P6SM VCFG SCT008=



000
FTUS41 KCTP 221630 AAC
TAFUNV
TAF AMD
KUNV 221630Z 2217/2312 30011G16KT P6SM BKN035 OVC040
     FM222300 30007KT P6SM BKN035
     FM230500 33005KT P6SM SKC
     FM230800 VRB02KT P6SM VCFG SCT008=



000
FTUS41 KCTP 221607 AAB
TAFUNV
TAF AMD
KUNV 221607Z 2216/2312 33011G16KT P6SM BKN035 OVC040
     FM222200 30008G15KT P6SM SCT035
     FM230500 33005KT P6SM SKC
     FM230800 VRB02KT P6SM VCFG SCT008=



000
FTUS41 KCTP 221607 AAB
TAFUNV
TAF AMD
KUNV 221607Z 2216/2312 33011G16KT P6SM BKN035 OVC040
     FM222200 30008G15KT P6SM SCT035
     FM230500 33005KT P6SM SKC
     FM230800 VRB02KT P6SM VCFG SCT008=



000
FTUS41 KCTP 221606 AAD
TAFAOO
TAF AMD
KAOO 221606Z 2216/2312 33010G17KT P6SM VCSH SCT025 OVC035
     FM222200 30008G16KT P6SM SCT035
     FM230500 33005KT P6SM SKC=



000
FTUS41 KCTP 221606 AAD
TAFAOO
TAF AMD
KAOO 221606Z 2216/2312 33010G17KT P6SM VCSH SCT025 OVC035
     FM222200 30008G16KT P6SM SCT035
     FM230500 33005KT P6SM SKC=



000
FTUS41 KCTP 221604 AAF
TAFJST
TAF AMD
KJST 221604Z 2216/2312 31012G17KT P6SM BKN014 OVC026
     FM222100 30010G17KT P6SM SCT016 BKN026
     FM230000 32007KT P6SM BKN025=



000
FTUS41 KCTP 221604 AAF
TAFJST
TAF AMD
KJST 221604Z 2216/2312 31012G17KT P6SM BKN014 OVC026
     FM222100 30010G17KT P6SM SCT016 BKN026
     FM230000 32007KT P6SM BKN025=



000
FTUS41 KCTP 221539 AAB
TAFMDT
TAF AMD
KMDT 221539Z 2216/2312 31015G25KT P6SM SCT050
     FM222200 30011KT P6SM FEW060
     FM230000 32006KT P6SM SKC
     FM230600 33003KT P6SM SKC=



000
FTUS41 KCTP 221539 AAB
TAFMDT
TAF AMD
KMDT 221539Z 2216/2312 31015G25KT P6SM SCT050
     FM222200 30011KT P6SM FEW060
     FM230000 32006KT P6SM SKC
     FM230600 33003KT P6SM SKC=



000
FTUS41 KCTP 221539 AAA
TAFIPT
TAF AMD
KIPT 221539Z 2216/2312 27010KT P6SM BKN040
     FM221600 27010G18KT P6SM SCT050
     FM230000 27008KT P6SM SKC
     FM230800 VRB02KT P6SM VCFG SCT008
      TEMPO 2309/2312 1SM BR BKN008=



000
FTUS41 KCTP 221539 AAB
TAFBFD
TAF AMD
KBFD 221539Z 2216/2312 31012KT P6SM VCSH BKN016 OVC025
     FM221700 32012G18KT P6SM SCT016 BKN028
     FM230000 30005KT P6SM BKN030
     FM231000 VRB03KT 5SM BR SCT030=



000
FTUS41 KCTP 221539 AAE
TAFJST
TAF AMD
KJST 221539Z 2216/2312 31013G23KT P6SM BKN021 OVC026
     FM221900 30015G25KT P6SM SCT020 BKN026
     FM230000 32007KT P6SM BKN025=



000
FTUS41 KCTP 221539 AAC
TAFAOO
TAF AMD
KAOO 221539Z 2216/2312 33010G17KT P6SM VCSH BKN025 OVC030
     FM222200 30008G16KT P6SM SCT035
     FM230500 33005KT P6SM SKC=



000
FTUS41 KCTP 221539 AAB
TAFBFD
TAF AMD
KBFD 221539Z 2216/2312 31012KT P6SM VCSH BKN016 OVC025
     FM221700 32012G18KT P6SM SCT016 BKN028
     FM230000 30005KT P6SM BKN030
     FM231000 VRB03KT 5SM BR SCT030=



000
FTUS41 KCTP 221539 AAA
TAFIPT
TAF AMD
KIPT 221539Z 2216/2312 27010KT P6SM BKN040
     FM221600 27010G18KT P6SM SCT050
     FM230000 27008KT P6SM SKC
     FM230800 VRB02KT P6SM VCFG SCT008
      TEMPO 2309/2312 1SM BR BKN008=



000
FTUS41 KCTP 221539 AAA
TAFUNV
TAF AMD
KUNV 221539Z 2216/2312 33011G16KT P6SM BKN030 OVC040
     FM222200 30008G15KT P6SM SCT035
     FM230500 33005KT P6SM SKC
     FM230800 VRB02KT P6SM VCFG SCT008=



000
FTUS41 KCTP 221539 AAA
TAFUNV
TAF AMD
KUNV 221539Z 2216/2312 33011G16KT P6SM BKN030 OVC040
     FM222200 30008G15KT P6SM SCT035
     FM230500 33005KT P6SM SKC
     FM230800 VRB02KT P6SM VCFG SCT008=



000
FTUS41 KCTP 221539 AAC
TAFAOO
TAF AMD
KAOO 221539Z 2216/2312 33010G17KT P6SM VCSH BKN025 OVC030
     FM222200 30008G16KT P6SM SCT035
     FM230500 33005KT P6SM SKC=



000
FTUS41 KCTP 221539 AAE
TAFJST
TAF AMD
KJST 221539Z 2216/2312 31013G23KT P6SM BKN021 OVC026
     FM221900 30015G25KT P6SM SCT020 BKN026
     FM230000 32007KT P6SM BKN025=



000
FTUS41 KCTP 221458 AAD
TAFJST
TAF AMD
KJST 221458Z 2215/2312 31013G23KT P6SM BKN016 OVC021
      TEMPO 2215/2219 3SM -SHRA BKN008 OVC015
     FM221900 30015G25KT P6SM SCT015 BKN026
     FM230000 32007KT P6SM BKN025=



000
FTUS41 KCTP 221458 AAD
TAFJST
TAF AMD
KJST 221458Z 2215/2312 31013G23KT P6SM BKN016 OVC021
      TEMPO 2215/2219 3SM -SHRA BKN008 OVC015
     FM221900 30015G25KT P6SM SCT015 BKN026
     FM230000 32007KT P6SM BKN025=



000
FTUS41 KCTP 221406 AAC
TAFJST
TAF AMD
KJST 221406Z 2214/2312 31013G23KT 2SM -RA BKN006 OVC011
     FM221600 30013G23KT P6SM SCT009 OVC015
     FM221900 30015G25KT P6SM SCT025 BKN035
     FM230000 32007KT P6SM SCT035=



000
FTUS41 KCTP 221340 AAB
TAFAOO
TAF AMD
KAOO 221340Z 2214/2312 33010G17KT P6SM VCSH BKN018 OVC025
      TEMPO 2214/2215 30010G18KT P6SM SCT019 BKN025
     FM221500 29012G20KT P6SM BKN026
     FM221800 30013G23KT P6SM SCT035
     FM230000 33005KT P6SM SKC=



000
FTUS41 KCTP 221340 AAB
TAFAOO
TAF AMD
KAOO 221340Z 2214/2312 33010G17KT P6SM VCSH BKN018 OVC025
      TEMPO 2214/2215 30010G18KT P6SM SCT019 BKN025
     FM221500 29012G20KT P6SM BKN026
     FM221800 30013G23KT P6SM SCT035
     FM230000 33005KT P6SM SKC=



000
FTUS41 KCTP 221227 AAB
TAFJST
TAF AMD
KJST 221227Z 2212/2312 31013G23KT P6SM VCSH BKN008 OVC015
     FM221400 30013G23KT P6SM SCT009 OVC015
     FM221600 30015G25KT P6SM BKN035
     FM230000 32007KT P6SM SCT035=



000
FTUS41 KCTP 221227 AAB
TAFJST
TAF AMD
KJST 221227Z 2212/2312 31013G23KT P6SM VCSH BKN008 OVC015
     FM221400 30013G23KT P6SM SCT009 OVC015
     FM221600 30015G25KT P6SM BKN035
     FM230000 32007KT P6SM SCT035=



000
FTUS41 KCTP 221226 AAA
TAFBFD
TAF AMD
KBFD 221226Z 2212/2312 33013G19KT 4SM -SHRA BKN006 OVC012
     FM221400 31012KT P6SM VCSH SCT007 OVC015
     FM221700 32012G18KT P6SM SCT016 BKN028
     FM230000 30005KT P6SM BKN035
     FM230900 VRB03KT 5SM BR SCT040=



000
FTUS41 KCTP 221226 AAA
TAFBFD
TAF AMD
KBFD 221226Z 2212/2312 33013G19KT 4SM -SHRA BKN006 OVC012
     FM221400 31012KT P6SM VCSH SCT007 OVC015
     FM221700 32012G18KT P6SM SCT016 BKN028
     FM230000 30005KT P6SM BKN035
     FM230900 VRB03KT 5SM BR SCT040=



000
FTUS41 KCTP 221223 AAA
TAFJST
TAF AMD
KJST 221223Z 2212/2312 29013G23KT P6SM VCSH OVC010
     FM221400 30013G23KT P6SM OVC015
     FM221600 30015G25KT P6SM BKN035
     FM230000 32007KT P6SM SCT035=



000
FTUS41 KCTP 221223 AAA
TAFJST
TAF AMD
KJST 221223Z 2212/2312 29013G23KT P6SM VCSH OVC010
     FM221400 30013G23KT P6SM OVC015
     FM221600 30015G25KT P6SM BKN035
     FM230000 32007KT P6SM SCT035=



000
FTUS41 KCTP 221222 AAA
TAFAOO
TAF AMD
KAOO 221222Z 2212/2312 31010G17KT P6SM VCSH BKN016 OVC023
      TEMPO 2212/2213 30010G18KT P6SM SCT015 BKN025
     FM221400 29012G20KT P6SM BKN035
     FM221700 30013G23KT P6SM SCT050
     FM230000 33005KT P6SM SKC=



000
FTUS41 KCTP 221222 AAA
TAFAOO
TAF AMD
KAOO 221222Z 2212/2312 31010G17KT P6SM VCSH BKN016 OVC023
      TEMPO 2212/2213 30010G18KT P6SM SCT015 BKN025
     FM221400 29012G20KT P6SM BKN035
     FM221700 30013G23KT P6SM SCT050
     FM230000 33005KT P6SM SKC=



000
FTUS41 KCTP 221221 AAA
TAFMDT
TAF AMD
KMDT 221221Z 2212/2312 31015G25KT P6SM SCT060
     FM230000 32006KT P6SM SKC=



000
FTUS41 KCTP 221221 AAA
TAFMDT
TAF AMD
KMDT 221221Z 2212/2312 31015G25KT P6SM SCT060
     FM230000 32006KT P6SM SKC=



000
FTUS41 KCTP 221138
TAFJST
TAF
KJST 221138Z 2212/2312 29013G23KT P6SM VCSH BKN008 OVC015
     FM221400 30013G23KT P6SM OVC015
     FM221600 30015G25KT P6SM BKN035
     FM230000 32007KT P6SM SCT035=



000
FTUS41 KCTP 221138
TAFMDT
TAF
KMDT 221138Z 2212/2312 31010G17KT P6SM BKN060
     FM221500 32015G26KT P6SM SCT050
     FM230000 32006KT P6SM SKC=



000
FTUS41 KCTP 221138
TAFIPT
TAF
KIPT 221138Z 2212/2312 27010KT P6SM BKN040
     FM221600 27010G18KT P6SM SCT050
     FM230000 27008KT P6SM SKC=



000
FTUS41 KCTP 221138
TAFAOO
TAF
KAOO 221138Z 2212/2312 29012KT P6SM VCSH BKN025
      TEMPO 2212/2213 30010G18KT P6SM SCT025 OVC035
     FM221400 29012G20KT P6SM BKN035
     FM221700 30013G23KT P6SM SCT050
     FM230000 33005KT P6SM SKC=



000
FTUS41 KCTP 221138
TAFUNV
TAF
KUNV 221138Z 2212/2312 33012KT P6SM BKN035
     FM221700 30013G23KT P6SM SCT050
     FM230000 28005KT P6SM SKC=



000
FTUS41 KCTP 221138
TAFBFD
TAF
KBFD 221138Z 2212/2312 30013KT P6SM VCSH BKN009 OVC015
     FM221400 31012KT P6SM SCT009 OVC020
     FM221600 32012G18KT P6SM BKN035
     FM230000 30005KT P6SM BKN035
     FM230900 VRB03KT 5SM BR SCT040=



000
FTUS41 KCTP 221138
TAFIPT
TAF
KIPT 221138Z 2212/2312 27010KT P6SM BKN040
     FM221600 27010G18KT P6SM SCT050
     FM230000 27008KT P6SM SKC=



000
FTUS41 KCTP 221138
TAFBFD
TAF
KBFD 221138Z 2212/2312 30013KT P6SM VCSH BKN009 OVC015
     FM221400 31012KT P6SM SCT009 OVC020
     FM221600 32012G18KT P6SM BKN035
     FM230000 30005KT P6SM BKN035
     FM230900 VRB03KT 5SM BR SCT040=



000
FTUS41 KCTP 221138
TAFJST
TAF
KJST 221138Z 2212/2312 29013G23KT P6SM VCSH BKN008 OVC015
     FM221400 30013G23KT P6SM OVC015
     FM221600 30015G25KT P6SM BKN035
     FM230000 32007KT P6SM SCT035=



000
FTUS41 KCTP 221138
TAFAOO
TAF
KAOO 221138Z 2212/2312 29012KT P6SM VCSH BKN025
      TEMPO 2212/2213 30010G18KT P6SM SCT025 OVC035
     FM221400 29012G20KT P6SM BKN035
     FM221700 30013G23KT P6SM SCT050
     FM230000 33005KT P6SM SKC=



000
FTUS41 KCTP 221138
TAFMDT
TAF
KMDT 221138Z 2212/2312 31010G17KT P6SM BKN060
     FM221500 32015G26KT P6SM SCT050
     FM230000 32006KT P6SM SKC=



000
FTUS41 KCTP 221138
TAFUNV
TAF
KUNV 221138Z 2212/2312 33012KT P6SM BKN035
     FM221700 30013G23KT P6SM SCT050
     FM230000 28005KT P6SM SKC=



000
FTUS41 KCTP 221057 AAC
TAFBFD
TAF AMD
KBFD 221057Z 2211/2306 30013KT P6SM VCSH BKN010 OVC015
     FM221400 31012KT P6SM SCT007 OVC020
     FM221500 32012G18KT P6SM BKN035
     FM230000 30007KT P6SM BKN035=



000
FTUS41 KCTP 221057 AAC
TAFBFD
TAF AMD
KBFD 221057Z 2211/2306 30013KT P6SM VCSH BKN010 OVC015
     FM221400 31012KT P6SM SCT007 OVC020
     FM221500 32012G18KT P6SM BKN035
     FM230000 30007KT P6SM BKN035=



000
FTUS41 KCTP 220924 CCA
TAFAOO
TAF COR
KAOO 220924Z 2209/2306 29010KT P6SM OVC025
      TEMPO 2209/2212 4SM -SHRA BR OVC015
     FM221300 29011G20KT P6SM OVC025
     FM221500 30012G22KT P6SM SCT050
     FM230000 28005KT P6SM SKC=



000
FTUS41 KCTP 220924 CCA
TAFAOO
TAF COR
KAOO 220924Z 2209/2306 29010KT P6SM OVC025
      TEMPO 2209/2212 4SM -SHRA BR OVC015
     FM221300 29011G20KT P6SM OVC025
     FM221500 30012G22KT P6SM SCT050
     FM230000 28005KT P6SM SKC=



000
FTUS41 KCTP 220923 AAA
TAFMDT
TAF AMD
KMDT 220923Z 2209/2306 31010KT P6SM BKN060
     FM221500 32014G24KT P6SM SCT050
     FM230000 32006KT P6SM SKC=



000
FTUS41 KCTP 220923 AAA
TAFIPT
TAF AMD
KIPT 220923Z 2209/2306 27010KT P6SM BKN035
     FM221600 27010G18KT P6SM SCT050
     FM230000 27008KT P6SM SKC=



000
FTUS41 KCTP 220923 AAA
TAFIPT
TAF AMD
KIPT 220923Z 2209/2306 27010KT P6SM BKN035
     FM221600 27010G18KT P6SM SCT050
     FM230000 27008KT P6SM SKC=



000
FTUS41 KCTP 220922 AAB
TAFUNV
TAF AMD
KUNV 220922Z 2209/2306 28011KT P6SM OVC030
     FM221400 30012G20KT P6SM SCT050
     FM230000 28005KT P6SM SKC=



000
FTUS41 KCTP 220922 AAB
TAFUNV
TAF AMD
KUNV 220922Z 2209/2306 28011KT P6SM OVC030
     FM221400 30012G20KT P6SM SCT050
     FM230000 28005KT P6SM SKC=



000
FTUS41 KCTP 220921 AAB
TAFAOO
TAF AMD
KAOO 220921Z 2209/2306 29010G18KT P6SM OVC025
      TEMPO 2209/2212 4SM -SHRA BR OVC015
     FM221300 29011G20KT P6SM OVC025
     FM221500 30012G22KT P6SM SCT050
     FM230000 28005KT P6SM SKC=



000
FTUS41 KCTP 220921 AAB
TAFAOO
TAF AMD
KAOO 220921Z 2209/2306 29010G18KT P6SM OVC025
      TEMPO 2209/2212 4SM -SHRA BR OVC015
     FM221300 29011G20KT P6SM OVC025
     FM221500 30012G22KT P6SM SCT050
     FM230000 28005KT P6SM SKC=



000
FTUS41 KCTP 220919 AAA
TAFJST
TAF AMD
KJST 220919Z 2209/2306 30013G23KT P6SM VCSH BKN008 OVC015
     FM221300 30013G23KT P6SM OVC015
     FM221500 30015G25KT P6SM BKN035
     FM230000 30007KT P6SM SCT035=



000
FTUS41 KCTP 220919 AAA
TAFJST
TAF AMD
KJST 220919Z 2209/2306 30013G23KT P6SM VCSH BKN008 OVC015
     FM221300 30013G23KT P6SM OVC015
     FM221500 30015G25KT P6SM BKN035
     FM230000 30007KT P6SM SCT035=



000
FTUS41 KCTP 220918 AAB
TAFBFD
TAF AMD
KBFD 220918Z 2209/2306 30013KT P6SM BKN009 OVC015
     FM221300 31012KT P6SM SCT007 OVC015
     FM221500 32012G18KT P6SM BKN035
     FM230000 30007KT P6SM BKN035=



000
FTUS41 KCTP 220918 AAB
TAFBFD
TAF AMD
KBFD 220918Z 2209/2306 30013KT P6SM BKN009 OVC015
     FM221300 31012KT P6SM SCT007 OVC015
     FM221500 32012G18KT P6SM BKN035
     FM230000 30007KT P6SM BKN035=



000
FTUS41 KCTP 220707 AAA
TAFUNV
TAF AMD
KUNV 220707Z 2207/2306 28010G18KT P6SM OVC030
     FM221500 30012G20KT P6SM SCT050
     FM230000 28005KT P6SM SKC=



000
FTUS41 KCTP 220707 AAA
TAFUNV
TAF AMD
KUNV 220707Z 2207/2306 28010G18KT P6SM OVC030
     FM221500 30012G20KT P6SM SCT050
     FM230000 28005KT P6SM SKC=



000
FTUS41 KCTP 220707 AAA
TAFAOO
TAF AMD
KAOO 220707Z 2207/2306 29010G18KT P6SM OVC025
     FM221500 30012G22KT P6SM SCT050
     FM230000 28005KT P6SM SKC=



000
FTUS41 KCTP 220707 AAA
TAFAOO
TAF AMD
KAOO 220707Z 2207/2306 29010G18KT P6SM OVC025
     FM221500 30012G22KT P6SM SCT050
     FM230000 28005KT P6SM SKC=



000
FTUS41 KCTP 220706 AAA
TAFBFD
TAF AMD
KBFD 220706Z 2207/2306 29013KT P6SM BKN007 OVC012
      TEMPO 2208/2212 3SM -SHRA BR SCT007 OVC015
     FM221500 32012G18KT P6SM BKN035
     FM230000 30007KT P6SM BKN035=



000
FTUS41 KCTP 220706 AAA
TAFBFD
TAF AMD
KBFD 220706Z 2207/2306 29013KT P6SM BKN007 OVC012
      TEMPO 2208/2212 3SM -SHRA BR SCT007 OVC015
     FM221500 32012G18KT P6SM BKN035
     FM230000 30007KT P6SM BKN035=



000
FTUS41 KCTP 220539
TAFBFD
TAF
KBFD 220539Z 2206/2306 28013KT 3SM -SHRA BR BKN007 OVC015
     FM220900 31010KT P6SM VCSH BKN010 OVC035
     FM221500 32012G18KT P6SM BKN035
     FM230000 30007KT P6SM BKN035=



000
FTUS41 KCTP 220539
TAFAOO
TAF
KAOO 220539Z 2206/2306 27010G18KT P6SM OVC025
     FM221500 30012G22KT P6SM SCT050
     FM230000 28005KT P6SM SKC=



000
FTUS41 KCTP 220539
TAFUNV
TAF
KUNV 220539Z 2206/2306 26010G18KT P6SM OVC035
     FM221500 30012G20KT P6SM SCT050
     FM230000 28005KT P6SM SKC=



000
FTUS41 KCTP 220539
TAFAOO
TAF
KAOO 220539Z 2206/2306 27010G18KT P6SM OVC025
     FM221500 30012G22KT P6SM SCT050
     FM230000 28005KT P6SM SKC=



000
FTUS41 KCTP 220539
TAFUNV
TAF
KUNV 220539Z 2206/2306 26010G18KT P6SM OVC035
     FM221500 30012G20KT P6SM SCT050
     FM230000 28005KT P6SM SKC=



000
FTUS41 KCTP 220539
TAFMDT
TAF
KMDT 220539Z 2206/2306 31010KT P6SM BKN060
     FM221500 32014G24KT P6SM SCT050
     FM230000 32006KT P6SM SKC=



000
FTUS41 KCTP 220539
TAFBFD
TAF
KBFD 220539Z 2206/2306 28013KT 3SM -SHRA BR BKN007 OVC015
     FM220900 31010KT P6SM VCSH BKN010 OVC035
     FM221500 32012G18KT P6SM BKN035
     FM230000 30007KT P6SM BKN035=



000
FTUS41 KCTP 220539
TAFJST
TAF
KJST 220539Z 2206/2306 30013G23KT P6SM VCSH BKN008 OVC015
     FM221500 30015G22KT P6SM BKN035
     FM230000 30007KT P6SM SCT035=



000
FTUS41 KCTP 220539
TAFIPT
TAF
KIPT 220539Z 2206/2306 29006KT P6SM BKN050
     FM221500 27010G18KT P6SM SCT050
     FM230000 27008KT P6SM SKC=



000
FTUS41 KCTP 220539
TAFMDT
TAF
KMDT 220539Z 2206/2306 31010KT P6SM BKN060
     FM221500 32014G24KT P6SM SCT050
     FM230000 32006KT P6SM SKC=



000
FTUS41 KCTP 220539
TAFIPT
TAF
KIPT 220539Z 2206/2306 29006KT P6SM BKN050
     FM221500 27010G18KT P6SM SCT050
     FM230000 27008KT P6SM SKC=



000
FTUS41 KCTP 220504 AAB
TAFAOO
TAF AMD
KAOO 220504Z 2205/2224 27010G18KT P6SM OVC035
     FM221500 30012G20KT P6SM SCT050=



000
FTUS41 KCTP 220504 AAB
TAFAOO
TAF AMD
KAOO 220504Z 2205/2224 27010G18KT P6SM OVC035
     FM221500 30012G20KT P6SM SCT050=



000
FTUS41 KCTP 220502 AAB
TAFJST
TAF AMD
KJST 220502Z 2205/2224 29013G23KT P6SM VCSH SCT015 OVC025
      TEMPO 2206/2210 29014KT 5SM -SHRA BR OVC015
     FM221500 30015G22KT P6SM BKN050=



000
FTUS41 KCTP 220502 AAB
TAFJST
TAF AMD
KJST 220502Z 2205/2224 29013G23KT P6SM VCSH SCT015 OVC025
      TEMPO 2206/2210 29014KT 5SM -SHRA BR OVC015
     FM221500 30015G22KT P6SM BKN050=



000
FTUS41 KCTP 220501 AAB
TAFBFD
TAF AMD
KBFD 220501Z 2205/2224 28013KT 5SM -SHRA BR BKN007 OVC015
     FM220900 31010KT P6SM VCSH BKN010 OVC035
     FM221500 32012G18KT P6SM BKN050=



000
FTUS41 KCTP 220315 AAA
TAFAOO
TAF AMD
KAOO 220315Z 2203/2224 27006KT P6SM SCT100
     FM220600 30008KT P6SM BKN050
     FM221500 30012G20KT P6SM SCT050=



000
FTUS41 KCTP 220315 AAA
TAFIPT
TAF AMD
KIPT 220315Z 2203/2224 29006KT P6SM SCT050
     FM221500 27010G18KT P6SM SCT050
     FM222100 31010G20KT P6SM SKC=



000
FTUS41 KCTP 220315 AAA
TAFBFD
TAF AMD
KBFD 220315Z 2203/2224 28010G15KT P6SM BKN025
     FM220600 31010KT P6SM VCSH SCT015 OVC035
     FM221500 32012G18KT P6SM BKN050=



000
FTUS41 KCTP 220315 AAA
TAFUNV
TAF AMD
KUNV 220315Z 2203/2224 28006G12KT P6SM SKC
     FM220600 26008KT P6SM SCT050
     FM221500 29012G20KT P6SM SCT050=



000
FTUS41 KCTP 220315 AAA
TAFMDT
TAF AMD
KMDT 220315Z 2203/2224 29006KT P6SM SCT100
     FM220600 31010KT P6SM SCT250
     FM221500 30012G20KT P6SM SCT050=



000
FTUS41 KCTP 220315 AAA
TAFIPT
TAF AMD
KIPT 220315Z 2203/2224 29006KT P6SM SCT050
     FM221500 27010G18KT P6SM SCT050
     FM222100 31010G20KT P6SM SKC=



000
FTUS41 KCTP 220315 AAA
TAFMDT
TAF AMD
KMDT 220315Z 2203/2224 29006KT P6SM SCT100
     FM220600 31010KT P6SM SCT250
     FM221500 30012G20KT P6SM SCT050=



000
FTUS41 KCTP 220315 AAA
TAFJST
TAF AMD
KJST 220315Z 2203/2224 26010G20KT P6SM SCT050
     FM220600 29014KT 5SM BR VCSH SCT015 OVC035
     FM221500 30015G22KT P6SM BKN050=



000
FTUS41 KCTP 212337
TAFJST
TAF
KJST 212337Z 2200/2224 26008KT P6SM SCT050 BKN080
     FM220600 29014KT 5SM BR VCSH SCT015 OVC035
     FM221500 30015G22KT P6SM BKN050=



000
FTUS41 KCTP 212337
TAFUNV
TAF
KUNV 212337Z 2200/2224 24007KT P6SM SCT035 BKN100
     FM220600 26008KT P6SM BKN050
     FM221500 29012G20KT P6SM SCT050=



000
FTUS41 KCTP 212337
TAFIPT
TAF
KIPT 212337Z 2200/2224 29006KT P6SM SCT025 BKN050
     FM221500 27010G18KT P6SM SCT050
     FM222100 31010G20KT P6SM SKC=



000
FTUS41 KCTP 212337
TAFBFD
TAF
KBFD 212337Z 2200/2224 30010KT P6SM SCT025 BKN040
     FM220300 29008KT P6SM OVC040
     FM220600 31010KT P6SM VCSH SCT015 OVC035
     FM221500 32012G18KT P6SM BKN050=



000
FTUS41 KCTP 212337
TAFMDT
TAF
KMDT 212337Z 2200/2224 26006KT P6SM SCT050 BKN100
     FM220300 31010KT P6SM SCT250
     FM221500 30012G20KT P6SM SCT050=



000
FTUS41 KCTP 212337
TAFAOO
TAF
KAOO 212337Z 2200/2224 20008KT P6SM BKN100
     FM220600 30008KT P6SM BKN050
     FM221500 30012G20KT P6SM SCT050=



000
FTUS41 KCTP 212337
TAFUNV
TAF
KUNV 212337Z 2200/2224 24007KT P6SM SCT035 BKN100
     FM220600 26008KT P6SM BKN050
     FM221500 29012G20KT P6SM SCT050=



000
FTUS41 KCTP 212337
TAFMDT
TAF
KMDT 212337Z 2200/2224 26006KT P6SM SCT050 BKN100
     FM220300 31010KT P6SM SCT250
     FM221500 30012G20KT P6SM SCT050=



000
FTUS41 KCTP 212337
TAFIPT
TAF
KIPT 212337Z 2200/2224 29006KT P6SM SCT025 BKN050
     FM221500 27010G18KT P6SM SCT050
     FM222100 31010G20KT P6SM SKC=



000
FTUS41 KCTP 212337
TAFAOO
TAF
KAOO 212337Z 2200/2224 20008KT P6SM BKN100
     FM220600 30008KT P6SM BKN050
     FM221500 30012G20KT P6SM SCT050=



000
FTUS41 KCTP 212337
TAFJST
TAF
KJST 212337Z 2200/2224 26008KT P6SM SCT050 BKN080
     FM220600 29014KT 5SM BR VCSH SCT015 OVC035
     FM221500 30015G22KT P6SM BKN050=



000
FTUS41 KCTP 212337
TAFBFD
TAF
KBFD 212337Z 2200/2224 30010KT P6SM SCT025 BKN040
     FM220300 29008KT P6SM OVC040
     FM220600 31010KT P6SM VCSH SCT015 OVC035
     FM221500 32012G18KT P6SM BKN050=



000
FTUS41 KCTP 212136 AAB
TAFJST
TAF AMD
KJST 212136Z 2122/2218 26010G20KT P6SM SCT030 BKN060
     FM220400 29012G21KT P6SM VCSH BKN007 OVC010=



000
FTUS41 KCTP 212136 AAB
TAFBFD
TAF AMD
KBFD 212136Z 2122/2218 28010KT P6SM SCT025 BKN035
     FM220200 30010G17KT P6SM BKN020
     FM220600 30009G16KT P6SM VCSH BKN005 OVC010=



000
FTUS41 KCTP 212136 AAA
TAFAOO
TAF AMD
KAOO 212136Z 2122/2218 24010KT P6SM VCSH SCT050 BKN080
     FM212300 28011G18KT P6SM BKN040
     FM220900 30011G22KT P6SM OVC020=



000
FTUS41 KCTP 212136 AAA
TAFUNV
TAF AMD
KUNV 212136Z 2122/2218 23012G18KT P6SM VCSH SCT050 OVC080
     FM212300 28011G21KT P6SM BKN030
     FM220900 29011G20KT P6SM OVC020=



000
FTUS41 KCTP 212136 AAA
TAFMDT
TAF AMD
KMDT 212136Z 2122/2218 25010G18KT P6SM VCSH SCT040 BKN060
     FM220000 29010G17KT P6SM SCT040=



000
FTUS41 KCTP 212136 AAA
TAFMDT
TAF AMD
KMDT 212136Z 2122/2218 25010G18KT P6SM VCSH SCT040 BKN060
     FM220000 29010G17KT P6SM SCT040=



000
FTUS41 KCTP 212136 AAA
TAFIPT
TAF AMD
KIPT 212136Z 2122/2218 VRB06KT P6SM VCSH SCT035 BKN050
     FM212300 26009KT P6SM BKN050
     FM220900 27008KT P6SM OVC010=



000
FTUS41 KCTP 212136 AAB
TAFJST
TAF AMD
KJST 212136Z 2122/2218 26010G20KT P6SM SCT030 BKN060
     FM220400 29012G21KT P6SM VCSH BKN007 OVC010=



000
FTUS41 KCTP 212136 AAA
TAFIPT
TAF AMD
KIPT 212136Z 2122/2218 VRB06KT P6SM VCSH SCT035 BKN050
     FM212300 26009KT P6SM BKN050
     FM220900 27008KT P6SM OVC010=



000
FTUS41 KCTP 212136 AAA
TAFUNV
TAF AMD
KUNV 212136Z 2122/2218 23012G18KT P6SM VCSH SCT050 OVC080
     FM212300 28011G21KT P6SM BKN030
     FM220900 29011G20KT P6SM OVC020=



000
FTUS41 KCTP 212136 AAA
TAFAOO
TAF AMD
KAOO 212136Z 2122/2218 24010KT P6SM VCSH SCT050 BKN080
     FM212300 28011G18KT P6SM BKN040
     FM220900 30011G22KT P6SM OVC020=



000
FTUS41 KCTP 212136 AAB
TAFBFD
TAF AMD
KBFD 212136Z 2122/2218 28010KT P6SM SCT025 BKN035
     FM220200 30010G17KT P6SM BKN020
     FM220600 30009G16KT P6SM VCSH BKN005 OVC010=



000
FTUS41 KCTP 212102 AAA
TAFJST
TAF AMD
KJST 212102Z 2121/2218 28012G20KT P6SM SCT050 OVC080
     FM220400 29012G21KT P6SM VCSH BKN007 OVC010=



000
FTUS41 KCTP 212102 AAA
TAFJST
TAF AMD
KJST 212102Z 2121/2218 28012G20KT P6SM SCT050 OVC080
     FM220400 29012G21KT P6SM VCSH BKN007 OVC010=



000
FTUS41 KCTP 212100 AAA
TAFBFD
TAF AMD
KBFD 212100Z 2121/2218 28012G21KT P6SM SCT025 BKN035
     FM220200 30010G17KT P6SM BKN020
     FM220600 30009G16KT P6SM VCSH BKN005 OVC010=



000
FTUS41 KCTP 212100 AAA
TAFBFD
TAF AMD
KBFD 212100Z 2121/2218 28012G21KT P6SM SCT025 BKN035
     FM220200 30010G17KT P6SM BKN020
     FM220600 30009G16KT P6SM VCSH BKN005 OVC010=



000
FTUS41 KCTP 211743
TAFAOO
TAF
KAOO 211743Z 2118/2218 21014G21KT P6SM SCT045 BKN070
      TEMPO 2119/2122 25016G30KT 5SM SHRA OVC040
     FM212200 28011G18KT P6SM BKN040
     FM220900 30011G22KT P6SM OVC020=



000
FTUS41 KCTP 211743
TAFIPT
TAF
KIPT 211743Z 2118/2218 16011G18KT P6SM SCT040 BKN090
     FM211900 20007KT P6SM VCSH BKN040 BKN080
      TEMPO 2121/2123 3SM TSRA OVC025CB
     FM220000 26009KT P6SM BKN050
     FM220900 27008KT P6SM OVC010=



000
FTUS41 KCTP 211743
TAFMDT
TAF
KMDT 211743Z 2118/2218 16007KT P6SM SCT070 SCT250
     FM211900 20008G15KT P6SM SCT050
     FM212200 24008G15KT P6SM VCSH BKN050 BKN080
     FM220000 29010G17KT P6SM SCT040=



000
FTUS41 KCTP 211743
TAFUNV
TAF
KUNV 211743Z 2118/2218 22009G16KT P6SM BKN040 OVC080
     FM211900 23011G17KT P6SM VCSH BKN040 BKN080
     FM212130 28011G21KT P6SM BKN030
     FM220900 29011G20KT P6SM OVC020=



000
FTUS41 KCTP 211743
TAFBFD
TAF
KBFD 211743Z 2118/2218 24012G18KT P6SM -SHRA VCTS SCT009 BKN015CB
     FM212000 27012G21KT P6SM BKN025
     FM220200 30010G17KT P6SM BKN020
     FM220600 30009G16KT P6SM VCSH BKN005 OVC010=



000
FTUS41 KCTP 211743
TAFAOO
TAF
KAOO 211743Z 2118/2218 21014G21KT P6SM SCT045 BKN070
      TEMPO 2119/2122 25016G30KT 5SM SHRA OVC040
     FM212200 28011G18KT P6SM BKN040
     FM220900 30011G22KT P6SM OVC020=



000
FTUS41 KCTP 211743
TAFIPT
TAF
KIPT 211743Z 2118/2218 16011G18KT P6SM SCT040 BKN090
     FM211900 20007KT P6SM VCSH BKN040 BKN080
      TEMPO 2121/2123 3SM TSRA OVC025CB
     FM220000 26009KT P6SM BKN050
     FM220900 27008KT P6SM OVC010=



000
FTUS41 KCTP 211743
TAFMDT
TAF
KMDT 211743Z 2118/2218 16007KT P6SM SCT070 SCT250
     FM211900 20008G15KT P6SM SCT050
     FM212200 24008G15KT P6SM VCSH BKN050 BKN080
     FM220000 29010G17KT P6SM SCT040=



000
FTUS41 KCTP 211743
TAFUNV
TAF
KUNV 211743Z 2118/2218 22009G16KT P6SM BKN040 OVC080
     FM211900 23011G17KT P6SM VCSH BKN040 BKN080
     FM212130 28011G21KT P6SM BKN030
     FM220900 29011G20KT P6SM OVC020=



000
FTUS41 KCTP 211743
TAFJST
TAF
KJST 211743Z 2118/2218 24012G20KT P6SM VCSH BKN014 OVC021
     FM212200 27012G22KT P6SM SCT025 BKN035
     FM220400 29012G21KT P6SM VCSH BKN007 OVC010=



000
FTUS41 KCTP 211743
TAFBFD
TAF
KBFD 211743Z 2118/2218 24012G18KT P6SM -SHRA VCTS SCT009 BKN015CB
     FM212000 27012G21KT P6SM BKN025
     FM220200 30010G17KT P6SM BKN020
     FM220600 30009G16KT P6SM VCSH BKN005 OVC010=



000
FTUS41 KCTP 211743
TAFJST
TAF
KJST 211743Z 2118/2218 24012G20KT P6SM VCSH BKN014 OVC021
     FM212200 27012G22KT P6SM SCT025 BKN035
     FM220400 29012G21KT P6SM VCSH BKN007 OVC010=



000
FTUS41 KCTP 211723 AAC
TAFBFD
TAF AMD
KBFD 211723Z 2117/2212 24012G18KT P6SM -SHRA VCTS SCT009 BKN015CB
     FM212000 27012G21KT P6SM BKN025
     FM220300 30007KT P6SM BKN020
     FM220700 30009KT P6SM OVC010=



000
FTUS41 KCTP 211723 AAC
TAFBFD
TAF AMD
KBFD 211723Z 2117/2212 24012G18KT P6SM -SHRA VCTS SCT009 BKN015CB
     FM212000 27012G21KT P6SM BKN025
     FM220300 30007KT P6SM BKN020
     FM220700 30009KT P6SM OVC010=



000
FTUS41 KCTP 211708 AAF
TAFIPT
TAF AMD
KIPT 211708Z 2117/2212 14011G18KT P6SM SCT040 BKN090
     FM211900 20007KT P6SM VCSH BKN040 BKN080
     FM220000 26009KT P6SM BKN050
     FM220900 27008KT P6SM OVC010=



000
FTUS41 KCTP 211708 AAF
TAFIPT
TAF AMD
KIPT 211708Z 2117/2212 14011G18KT P6SM SCT040 BKN090
     FM211900 20007KT P6SM VCSH BKN040 BKN080
     FM220000 26009KT P6SM BKN050
     FM220900 27008KT P6SM OVC010=



000
FTUS41 KCTP 211706 AAB
TAFBFD
TAF AMD
KBFD 211706Z 2117/2212 24012G18KT P6SM VCSH SCT009 BKN015
     FM212000 27012G21KT P6SM BKN025
     FM220300 30007KT P6SM BKN020
     FM220700 30009KT P6SM OVC010=



000
FTUS41 KCTP 211706 AAB
TAFBFD
TAF AMD
KBFD 211706Z 2117/2212 24012G18KT P6SM VCSH SCT009 BKN015
     FM212000 27012G21KT P6SM BKN025
     FM220300 30007KT P6SM BKN020
     FM220700 30009KT P6SM OVC010=



000
FTUS41 KCTP 211705 AAC
TAFJST
TAF AMD
KJST 211705Z 2117/2212 24012G18KT P6SM VCSH BKN014 OVC021
     FM212200 27012G22KT P6SM SCT025 BKN035
     FM220400 29012KT P6SM OVC010=



000
FTUS41 KCTP 211705 AAC
TAFJST
TAF AMD
KJST 211705Z 2117/2212 24012G18KT P6SM VCSH BKN014 OVC021
     FM212200 27012G22KT P6SM SCT025 BKN035
     FM220400 29012KT P6SM OVC010=



000
FTUS41 KCTP 211619 AAB
TAFAOO
TAF AMD
KAOO 211619Z 2116/2212 21010G16KT P6SM SCT045 BKN070
      TEMPO 2119/2122 25016G25KT 5SM SHRA OVC040
     FM212200 28011G18KT P6SM BKN040
     FM220900 30011KT P6SM OVC020=



000
FTUS41 KCTP 211619 AAB
TAFAOO
TAF AMD
KAOO 211619Z 2116/2212 21010G16KT P6SM SCT045 BKN070
      TEMPO 2119/2122 25016G25KT 5SM SHRA OVC040
     FM212200 28011G18KT P6SM BKN040
     FM220900 30011KT P6SM OVC020=



000
FTUS41 KCTP 211617 AAE
TAFIPT
TAF AMD
KIPT 211617Z 2116/2212 12009KT P6SM SCT018
     FM211700 14007KT P6SM VCSH BKN045 BKN080
     FM211900 20007KT P6SM VCSH BKN040
     FM220000 26009KT P6SM BKN050
     FM220900 27008KT P6SM OVC010=



000
FTUS41 KCTP 211617 AAE
TAFIPT
TAF AMD
KIPT 211617Z 2116/2212 12009KT P6SM SCT018
     FM211700 14007KT P6SM VCSH BKN045 BKN080
     FM211900 20007KT P6SM VCSH BKN040
     FM220000 26009KT P6SM BKN050
     FM220900 27008KT P6SM OVC010=



000
FTUS41 KCTP 211616 AAD
TAFMDT
TAF AMD
KMDT 211616Z 2116/2212 15005KT 5SM HZ FEW015 SCT250
     FM211700 18006KT P6SM SCT050
     FM212200 24007KT P6SM VCSH BKN050 BKN080
     FM220000 29007KT P6SM BKN100=



000
FTUS41 KCTP 211616 AAD
TAFMDT
TAF AMD
KMDT 211616Z 2116/2212 15005KT 5SM HZ FEW015 SCT250
     FM211700 18006KT P6SM SCT050
     FM212200 24007KT P6SM VCSH BKN050 BKN080
     FM220000 29007KT P6SM BKN100=



000
FTUS41 KCTP 211530 AAC
TAFMDT
TAF AMD
KMDT 211530Z 2115/2212 12005KT 5SM HZ FEW007 SCT250
     FM211700 18006KT P6SM SCT050
     FM212000 24007KT P6SM VCSH BKN050 BKN080
     FM220000 29007KT P6SM BKN100=



000
FTUS41 KCTP 211530 AAC
TAFMDT
TAF AMD
KMDT 211530Z 2115/2212 12005KT 5SM HZ FEW007 SCT250
     FM211700 18006KT P6SM SCT050
     FM212000 24007KT P6SM VCSH BKN050 BKN080
     FM220000 29007KT P6SM BKN100=



000
FTUS41 KCTP 211528 AAD
TAFIPT
TAF AMD
KIPT 211528Z 2115/2212 09010KT P6SM OVC017
     FM211615 12009KT P6SM SCT018
     FM211645 14007KT P6SM VCSH BKN045 BKN080
     FM211900 20007KT P6SM VCSH BKN040
     FM220000 26009KT P6SM BKN050
     FM220900 27008KT P6SM OVC010=



000
FTUS41 KCTP 211528 AAD
TAFIPT
TAF AMD
KIPT 211528Z 2115/2212 09010KT P6SM OVC017
     FM211615 12009KT P6SM SCT018
     FM211645 14007KT P6SM VCSH BKN045 BKN080
     FM211900 20007KT P6SM VCSH BKN040
     FM220000 26009KT P6SM BKN050
     FM220900 27008KT P6SM OVC010=



000
FTUS41 KCTP 211526 AAB
TAFUNV
TAF AMD
KUNV 211526Z 2115/2212 21007G14KT P6SM SCT080
     FM211600 23008G16KT P6SM VCSH BKN050 BKN080
     FM212100 28010KT P6SM BKN040
     FM220900 29011KT P6SM OVC020=



000
FTUS41 KCTP 211524 AAA
TAFAOO
TAF AMD
KAOO 211524Z 2115/2212 22012G17KT P6SM SCT080
     FM211530 23010G18KT P6SM VCSH SCT025 BKN050
      TEMPO 2116/2117 27016G25KT 5SM SHRA OVC040
     FM212100 28010KT P6SM BKN040
     FM220900 30011KT P6SM OVC020=



000
FTUS41 KCTP 211524 AAA
TAFAOO
TAF AMD
KAOO 211524Z 2115/2212 22012G17KT P6SM SCT080
     FM211530 23010G18KT P6SM VCSH SCT025 BKN050
      TEMPO 2116/2117 27016G25KT 5SM SHRA OVC040
     FM212100 28010KT P6SM BKN040
     FM220900 30011KT P6SM OVC020=



000
FTUS41 KCTP 211521 AAB
TAFJST
TAF AMD
KJST 211521Z 2115/2212 27012G18KT 2SM +SHRA BKN025 OVC040
     FM211545 24012G22KT P6SM VCSH BKN028 BKN035
     FM212000 28010KT P6SM BKN035
     FM220400 29012KT P6SM OVC010=



000
FTUS41 KCTP 211521 AAB
TAFJST
TAF AMD
KJST 211521Z 2115/2212 27012G18KT 2SM +SHRA BKN025 OVC040
     FM211545 24012G22KT P6SM VCSH BKN028 BKN035
     FM212000 28010KT P6SM BKN035
     FM220400 29012KT P6SM OVC010=



000
FTUS41 KCTP 211519 AAA
TAFBFD
TAF AMD
KBFD 211519Z 2115/2212 21008G15KT P6SM VCSH BKN009 OVC015
     FM211700 24012G18KT P6SM VCSH SCT012 BKN025
     FM212000 28008KT P6SM BKN035
     FM220300 30007KT P6SM BKN020
     FM220700 30009KT P6SM OVC010=



000
FTUS41 KCTP 211519 AAA
TAFBFD
TAF AMD
KBFD 211519Z 2115/2212 21008G15KT P6SM VCSH BKN009 OVC015
     FM211700 24012G18KT P6SM VCSH SCT012 BKN025
     FM212000 28008KT P6SM BKN035
     FM220300 30007KT P6SM BKN020
     FM220700 30009KT P6SM OVC010=



000
FTUS41 KCTP 211442 AAC
TAFIPT
TAF AMD
KIPT 211442Z 2115/2212 09010KT P6SM OVC014
     FM211530 12009KT P6SM SCT018
     FM211630 14007KT P6SM VCSH BKN045
     FM211700 20007KT P6SM VCSH BKN040
     FM220000 26009KT P6SM BKN050
     FM220900 27008KT P6SM OVC010=



000
FTUS41 KCTP 211442 AAC
TAFIPT
TAF AMD
KIPT 211442Z 2115/2212 09010KT P6SM OVC014
     FM211530 12009KT P6SM SCT018
     FM211630 14007KT P6SM VCSH BKN045
     FM211700 20007KT P6SM VCSH BKN040
     FM220000 26009KT P6SM BKN050
     FM220900 27008KT P6SM OVC010=



000
FTUS41 KCTP 211441 AAB
TAFMDT
TAF AMD
KMDT 211441Z 2115/2212 VRB03KT 2SM HZ OVC003
     FM211530 21005KT 5SM HZ BKN005
     FM211630 22006KT P6SM SCT050
     FM212000 24007KT P6SM VCSH BKN050
     FM220000 29007KT P6SM BKN100=



000
FTUS41 KCTP 211352 AAA
TAFJST
TAF AMD
KJST 211352Z 2114/2212 20012G17KT P6SM SCT025
     FM211440 23012G18KT 5SM +SHRA BKN025 OVC040
     FM211515 24012G22KT P6SM VCSH BKN028 BKN035
     FM212000 28010KT P6SM BKN035
     FM220400 29012KT P6SM OVC010=



000
FTUS41 KCTP 211352 AAA
TAFJST
TAF AMD
KJST 211352Z 2114/2212 20012G17KT P6SM SCT025
     FM211440 23012G18KT 5SM +SHRA BKN025 OVC040
     FM211515 24012G22KT P6SM VCSH BKN028 BKN035
     FM212000 28010KT P6SM BKN035
     FM220400 29012KT P6SM OVC010=



000
FTUS41 KCTP 211347 AAA
TAFUNV
TAF AMD
KUNV 211347Z 2114/2212 28007KT P6SM SCT080
     FM211600 24008G16KT P6SM VCSH BKN050
     FM212100 28010KT P6SM BKN040
     FM220900 29011KT P6SM OVC020=



000
FTUS41 KCTP 211347 AAA
TAFUNV
TAF AMD
KUNV 211347Z 2114/2212 28007KT P6SM SCT080
     FM211600 24008G16KT P6SM VCSH BKN050
     FM212100 28010KT P6SM BKN040
     FM220900 29011KT P6SM OVC020=



000
FTUS41 KCTP 211345 AAB
TAFIPT
TAF AMD
KIPT 211345Z 2114/2212 10008KT P6SM OVC014
     FM211430 13007KT P6SM SCT018 BKN045
     FM211500 13007KT P6SM VCSH BKN045
     FM211700 20007KT P6SM VCSH BKN040
     FM220000 26009KT P6SM BKN050
     FM220900 27008KT P6SM OVC010=



000
FTUS41 KCTP 211345 AAB
TAFIPT
TAF AMD
KIPT 211345Z 2114/2212 10008KT P6SM OVC014
     FM211430 13007KT P6SM SCT018 BKN045
     FM211500 13007KT P6SM VCSH BKN045
     FM211700 20007KT P6SM VCSH BKN040
     FM220000 26009KT P6SM BKN050
     FM220900 27008KT P6SM OVC010=



000
FTUS41 KCTP 211344 AAA
TAFMDT
TAF AMD
KMDT 211344Z 2114/2212 VRB03KT 1SM BR VCFG OVC003
     FM211430 21006KT P6SM SCT050
     FM212000 24007KT P6SM VCSH BKN050
     FM220000 29007KT P6SM BKN100=



000
FTUS41 KCTP 211344 AAA
TAFMDT
TAF AMD
KMDT 211344Z 2114/2212 VRB03KT 1SM BR VCFG OVC003
     FM211430 21006KT P6SM SCT050
     FM212000 24007KT P6SM VCSH BKN050
     FM220000 29007KT P6SM BKN100=



000
FTUS41 KCTP 211229 AAA
TAFIPT
TAF AMD
KIPT 211229Z 2112/2212 10007KT P6SM OVC014
     FM211330 13007KT P6SM SCT018 BKN045
     FM211500 13007KT P6SM VCSH BKN045
     FM211700 20007KT P6SM VCSH BKN040
     FM220000 26009KT P6SM BKN050
     FM220900 27008KT P6SM OVC010=



000
FTUS41 KCTP 211229 AAA
TAFIPT
TAF AMD
KIPT 211229Z 2112/2212 10007KT P6SM OVC014
     FM211330 13007KT P6SM SCT018 BKN045
     FM211500 13007KT P6SM VCSH BKN045
     FM211700 20007KT P6SM VCSH BKN040
     FM220000 26009KT P6SM BKN050
     FM220900 27008KT P6SM OVC010=



000
FTUS41 KCTP 211135
TAFBFD
TAF
KBFD 211135Z 2112/2212 19007KT P6SM VCSH BKN009 OVC015
     FM211500 25008KT P6SM VCSH BKN025
     FM212000 28008KT P6SM BKN035
     FM220300 30007KT P6SM BKN020
     FM220700 30009KT P6SM OVC010=



000
FTUS41 KCTP 211135
TAFIPT
TAF
KIPT 211135Z 2112/2212 07006KT P6SM BKN015 OVC040
     FM211300 13007KT P6SM BKN045
     FM211500 13007KT P6SM VCSH BKN045
     FM211700 20007KT P6SM VCSH BKN040
     FM220000 26009KT P6SM BKN050
     FM220900 27008KT P6SM OVC010=



000
FTUS41 KCTP 211135
TAFAOO
TAF
KAOO 211135Z 2112/2212 21005KT P6SM SCT080
     FM211500 24008KT P6SM VCSH BKN050
     FM212100 28010KT P6SM BKN040
     FM220900 30011KT P6SM OVC020=



000
FTUS41 KCTP 211135
TAFMDT
TAF
KMDT 211135Z 2112/2212 11004KT 1/2SM FG OVC002
     FM211230 VRB03KT 1SM BR VCFG OVC008
     FM211400 21006KT P6SM SCT050
     FM212000 24007KT P6SM VCSH BKN050
     FM220000 29007KT P6SM BKN100=



000
FTUS41 KCTP 211135
TAFJST
TAF
KJST 211135Z 2112/2212 19007KT P6SM SCT025
     FM211400 24010KT P6SM VCSH OVC040
     FM212000 28010KT P6SM BKN035
     FM220400 29012KT P6SM OVC010=



000
FTUS41 KCTP 211135
TAFUNV
TAF
KUNV 211135Z 2112/2212 23004KT P6SM SCT080
     FM211500 24008KT P6SM VCSH BKN050
     FM212100 28010KT P6SM BKN040
     FM220900 29011KT P6SM OVC020=



000
FTUS41 KCTP 211135
TAFUNV
TAF
KUNV 211135Z 2112/2212 23004KT P6SM SCT080
     FM211500 24008KT P6SM VCSH BKN050
     FM212100 28010KT P6SM BKN040
     FM220900 29011KT P6SM OVC020=



000
FTUS41 KCTP 211135
TAFMDT
TAF
KMDT 211135Z 2112/2212 11004KT 1/2SM FG OVC002
     FM211230 VRB03KT 1SM BR VCFG OVC008
     FM211400 21006KT P6SM SCT050
     FM212000 24007KT P6SM VCSH BKN050
     FM220000 29007KT P6SM BKN100=



000
FTUS41 KCTP 211135
TAFAOO
TAF
KAOO 211135Z 2112/2212 21005KT P6SM SCT080
     FM211500 24008KT P6SM VCSH BKN050
     FM212100 28010KT P6SM BKN040
     FM220900 30011KT P6SM OVC020=



000
FTUS41 KCTP 211135
TAFJST
TAF
KJST 211135Z 2112/2212 19007KT P6SM SCT025
     FM211400 24010KT P6SM VCSH OVC040
     FM212000 28010KT P6SM BKN035
     FM220400 29012KT P6SM OVC010=



000
FTUS41 KCTP 211135
TAFBFD
TAF
KBFD 211135Z 2112/2212 19007KT P6SM VCSH BKN009 OVC015
     FM211500 25008KT P6SM VCSH BKN025
     FM212000 28008KT P6SM BKN035
     FM220300 30007KT P6SM BKN020
     FM220700 30009KT P6SM OVC010=



000
FTUS41 KCTP 211135
TAFIPT
TAF
KIPT 211135Z 2112/2212 07006KT P6SM BKN015 OVC040
     FM211300 13007KT P6SM BKN045
     FM211500 13007KT P6SM VCSH BKN045
     FM211700 20007KT P6SM VCSH BKN040
     FM220000 26009KT P6SM BKN050
     FM220900 27008KT P6SM OVC010=



000
FTUS41 KCTP 211016 AAC
TAFBFD
TAF AMD
KBFD 211016Z 2110/2206 19005KT P6SM VCSH OVC010
      TEMPO 2111/2113 18005KT 3SM BR BKN008 OVC015
     FM211500 25008KT P6SM VCSH BKN025
     FM212000 28008KT P6SM BKN035
     FM220200 30007KT P6SM BKN020=



000
FTUS41 KCTP 211016 AAC
TAFBFD
TAF AMD
KBFD 211016Z 2110/2206 19005KT P6SM VCSH OVC010
      TEMPO 2111/2113 18005KT 3SM BR BKN008 OVC015
     FM211500 25008KT P6SM VCSH BKN025
     FM212000 28008KT P6SM BKN035
     FM220200 30007KT P6SM BKN020=



000
FTUS41 KCTP 211014 AAB
TAFIPT
TAF AMD
KIPT 211014Z 2110/2206 08006KT P6SM OVC015 WS008/20025KT
      TEMPO 2111/2113 VRB03KT P6SM OVC003
     FM211400 13007KT P6SM BKN045
     FM211700 20007KT P6SM VCSH BKN040
     FM220100 27009KT P6SM BKN050=



000
FTUS41 KCTP 211014 AAB
TAFIPT
TAF AMD
KIPT 211014Z 2110/2206 08006KT P6SM OVC015 WS008/20025KT
      TEMPO 2111/2113 VRB03KT P6SM OVC003
     FM211400 13007KT P6SM BKN045
     FM211700 20007KT P6SM VCSH BKN040
     FM220100 27009KT P6SM BKN050=



000
FTUS41 KCTP 211013 AAD
TAFMDT
TAF AMD
KMDT 211013Z 2110/2206 11004KT 1/2SM FG OVC002
     FM211230 VRB03KT 2SM BR VCFG OVC008
     FM211400 21006KT P6SM FEW050
     FM212000 24007KT P6SM VCSH BKN050
     FM220300 29007KT P6SM BKN100=



000
FTUS41 KCTP 211013 AAD
TAFMDT
TAF AMD
KMDT 211013Z 2110/2206 11004KT 1/2SM FG OVC002
     FM211230 VRB03KT 2SM BR VCFG OVC008
     FM211400 21006KT P6SM FEW050
     FM212000 24007KT P6SM VCSH BKN050
     FM220300 29007KT P6SM BKN100=



000
FTUS41 KCTP 210909 AAC
TAFMDT
TAF AMD
KMDT 210909Z 2109/2206 06003KT 6SM BR OVC003
     FM211030 VRB03KT 2SM BR VCFG OVC003
     FM211400 21006KT P6SM FEW050
     FM212000 24007KT P6SM VCSH BKN050
     FM220300 29007KT P6SM BKN100=



000
FTUS41 KCTP 210909 AAC
TAFMDT
TAF AMD
KMDT 210909Z 2109/2206 06003KT 6SM BR OVC003
     FM211030 VRB03KT 2SM BR VCFG OVC003
     FM211400 21006KT P6SM FEW050
     FM212000 24007KT P6SM VCSH BKN050
     FM220300 29007KT P6SM BKN100=



000
FTUS41 KCTP 210908 AAA
TAFIPT
TAF AMD
KIPT 210908Z 2109/2206 VRB03KT P6SM SCT080 WS008/20025KT
      TEMPO 2110/2113 5SM BR SCT003
     FM211400 13007KT P6SM BKN045
     FM211700 20007KT P6SM VCSH BKN040
     FM220100 27009KT P6SM BKN050=



000
FTUS41 KCTP 210907 AAA
TAFUNV
TAF AMD
KUNV 210907Z 2109/2206 22004KT P6SM SCT080
      TEMPO 2110/2113 VRB03KT 5SM BR BKN040
     FM211500 24008KT P6SM VCSH BKN050
     FM212100 29010KT P6SM BKN040=



000
FTUS41 KCTP 210907 AAA
TAFUNV
TAF AMD
KUNV 210907Z 2109/2206 22004KT P6SM SCT080
      TEMPO 2110/2113 VRB03KT 5SM BR BKN040
     FM211500 24008KT P6SM VCSH BKN050
     FM212100 29010KT P6SM BKN040=



000
FTUS41 KCTP 210906 AAA
TAFAOO
TAF AMD
KAOO 210906Z 2109/2206 21005KT P6SM SCT080
      TEMPO 2110/2113 VRB03KT 5SM BR BKN040
     FM211500 24008KT P6SM VCSH BKN050
     FM212100 29010KT P6SM BKN040=



000
FTUS41 KCTP 210904 AAC
TAFJST
TAF AMD
KJST 210904Z 2109/2206 19007KT P6SM SCT025
     FM211400 24010KT P6SM VCSH OVC040
     FM211800 28010KT P6SM BKN035
     FM220300 29008KT P6SM BKN020=



000
FTUS41 KCTP 210904 AAC
TAFJST
TAF AMD
KJST 210904Z 2109/2206 19007KT P6SM SCT025
     FM211400 24010KT P6SM VCSH OVC040
     FM211800 28010KT P6SM BKN035
     FM220300 29008KT P6SM BKN020=



000
FTUS41 KCTP 210902 AAB
TAFBFD
TAF AMD
KBFD 210902Z 2109/2206 19005KT P6SM OVC012
     FM211000 18005KT 5SM BR VCSH BKN008 OVC015
     FM211500 25008KT P6SM VCSH BKN025
     FM212000 28008KT P6SM BKN035
     FM220200 30007KT P6SM BKN020=



000
FTUS41 KCTP 210902 AAB
TAFBFD
TAF AMD
KBFD 210902Z 2109/2206 19005KT P6SM OVC012
     FM211000 18005KT 5SM BR VCSH BKN008 OVC015
     FM211500 25008KT P6SM VCSH BKN025
     FM212000 28008KT P6SM BKN035
     FM220200 30007KT P6SM BKN020=



000
FTUS41 KCTP 210845 AAB
TAFMDT
TAF AMD
KMDT 210845Z 2109/2206 05003KT 6SM BR OVC004
     FM211030 VRB03KT 1SM BR VCFG OVC004
     FM211400 21006KT P6SM FEW050
     FM212000 24007KT P6SM VCSH BKN050
     FM220300 29007KT P6SM BKN100=



000
FTUS41 KCTP 210845 AAB
TAFMDT
TAF AMD
KMDT 210845Z 2109/2206 05003KT 6SM BR OVC004
     FM211030 VRB03KT 1SM BR VCFG OVC004
     FM211400 21006KT P6SM FEW050
     FM212000 24007KT P6SM VCSH BKN050
     FM220300 29007KT P6SM BKN100=



000
FTUS41 KCTP 210844 AAB
TAFJST
TAF AMD
KJST 210844Z 2109/2206 18008KT P6SM SCT025
     FM211400 24010KT P6SM VCSH OVC040
     FM211800 28010KT P6SM BKN035
     FM220300 29008KT P6SM BKN020=



000
FTUS41 KCTP 210716 AAA
TAFMDT
TAF AMD
KMDT 210716Z 2107/2206 07003KT P6SM SCT009
     FM210800 VRB02KT 5SM BR VCFG SCT009
     FM210930 VRB02KT 1SM BR VCFG BKN009
     FM211400 21006KT P6SM FEW050
     FM212000 24007KT P6SM VCSH BKN050
     FM220300 29007KT P6SM BKN100=



000
FTUS41 KCTP 210716 AAA
TAFMDT
TAF AMD
KMDT 210716Z 2107/2206 07003KT P6SM SCT009
     FM210800 VRB02KT 5SM BR VCFG SCT009
     FM210930 VRB02KT 1SM BR VCFG BKN009
     FM211400 21006KT P6SM FEW050
     FM212000 24007KT P6SM VCSH BKN050
     FM220300 29007KT P6SM BKN100=



000
FTUS41 KCTP 210714 AAA
TAFBFD
TAF AMD
KBFD 210714Z 2107/2206 17008KT P6SM BKN040
     FM210900 18006KT P6SM BKN020 OVC050
     FM211000 18005KT 6SM BR VCSH BKN008 OVC015
     FM211600 27008KT P6SM BKN040
     FM220200 30007KT P6SM BKN020=



000
FTUS41 KCTP 210714 AAA
TAFBFD
TAF AMD
KBFD 210714Z 2107/2206 17008KT P6SM BKN040
     FM210900 18006KT P6SM BKN020 OVC050
     FM211000 18005KT 6SM BR VCSH BKN008 OVC015
     FM211600 27008KT P6SM BKN040
     FM220200 30007KT P6SM BKN020=



000
FTUS41 KCTP 210639 AAA
TAFJST
TAF AMD
KJST 210639Z 2107/2206 18008KT P6SM OVC025
     FM211400 24010KT P6SM VCSH OVC040
     FM211800 28010KT P6SM BKN035
     FM220300 29008KT P6SM BKN020=



000
FTUS41 KCTP 210639 AAA
TAFJST
TAF AMD
KJST 210639Z 2107/2206 18008KT P6SM OVC025
     FM211400 24010KT P6SM VCSH OVC040
     FM211800 28010KT P6SM BKN035
     FM220300 29008KT P6SM BKN020=



000
FTUS41 KCTP 210532
TAFUNV
TAF
KUNV 210532Z 2106/2206 22006KT P6SM BKN080
     FM211500 24007KT P6SM VCSH BKN050
     FM212100 29010KT P6SM BKN040=



000
FTUS41 KCTP 210532
TAFIPT
TAF
KIPT 210532Z 2106/2206 15014G22KT P6SM BKN070
     FM210700 12008KT P6SM SCT060 WS008/20025KT
      TEMPO 2109/2113 2SM BR SCT003
     FM211400 13007KT P6SM BKN045
     FM211700 20007KT P6SM VCSH BKN040
     FM220100 27009KT P6SM BKN050=



000
FTUS41 KCTP 210532
TAFBFD
TAF
KBFD 210532Z 2106/2206 17008KT P6SM BKN040
     FM210700 18006KT P6SM BKN020 OVC050
     FM211000 18005KT 6SM BR VCSH BKN008 OVC015
     FM211600 27008KT P6SM BKN040
     FM220200 30007KT P6SM BKN020=



000
FTUS41 KCTP 210532
TAFMDT
TAF
KMDT 210532Z 2106/2206 07003KT P6SM SKC
     FM210700 VRB02KT 4SM BR VCFG SKC
     FM210900 VRB02KT 1SM BR VCFG SKC
     FM211400 21006KT P6SM FEW050
     FM212000 24007KT P6SM VCSH BKN050
     FM220300 29007KT P6SM BKN100=



000
FTUS41 KCTP 210532
TAFJST
TAF
KJST 210532Z 2106/2206 18008KT P6SM SCT050
     FM211400 24010KT P6SM VCSH OVC040
     FM211800 28010KT P6SM BKN035
     FM220300 29008KT P6SM BKN020=



000
FTUS41 KCTP 210532
TAFAOO
TAF
KAOO 210532Z 2106/2206 19011KT P6SM BKN080
     FM211500 24008KT P6SM VCSH BKN050
     FM212100 29010KT P6SM BKN040=



000
FTUS41 KCTP 210532
TAFAOO
TAF
KAOO 210532Z 2106/2206 19011KT P6SM BKN080
     FM211500 24008KT P6SM VCSH BKN050
     FM212100 29010KT P6SM BKN040=



000
FTUS41 KCTP 210532
TAFUNV
TAF
KUNV 210532Z 2106/2206 22006KT P6SM BKN080
     FM211500 24007KT P6SM VCSH BKN050
     FM212100 29010KT P6SM BKN040=



000
FTUS41 KCTP 210532
TAFJST
TAF
KJST 210532Z 2106/2206 18008KT P6SM SCT050
     FM211400 24010KT P6SM VCSH OVC040
     FM211800 28010KT P6SM BKN035
     FM220300 29008KT P6SM BKN020=



000
FTUS41 KCTP 210532
TAFIPT
TAF
KIPT 210532Z 2106/2206 15014G22KT P6SM BKN070
     FM210700 12008KT P6SM SCT060 WS008/20025KT
      TEMPO 2109/2113 2SM BR SCT003
     FM211400 13007KT P6SM BKN045
     FM211700 20007KT P6SM VCSH BKN040
     FM220100 27009KT P6SM BKN050=



000
FTUS41 KCTP 210532
TAFBFD
TAF
KBFD 210532Z 2106/2206 17008KT P6SM BKN040
     FM210700 18006KT P6SM BKN020 OVC050
     FM211000 18005KT 6SM BR VCSH BKN008 OVC015
     FM211600 27008KT P6SM BKN040
     FM220200 30007KT P6SM BKN020=



000
FTUS41 KCTP 210532
TAFMDT
TAF
KMDT 210532Z 2106/2206 07003KT P6SM SKC
     FM210700 VRB02KT 4SM BR VCFG SKC
     FM210900 VRB02KT 1SM BR VCFG SKC
     FM211400 21006KT P6SM FEW050
     FM212000 24007KT P6SM VCSH BKN050
     FM220300 29007KT P6SM BKN100=



000
FTUS41 KCTP 210354 AAA
TAFMDT
TAF AMD
KMDT 210354Z 2104/2124 12003KT P6SM SKC
     FM210700 VRB02KT 4SM BR VCFG SKC
     FM210900 VRB02KT 1SM BR VCFG SKC
     FM211400 21006KT P6SM FEW050
     FM212000 24007KT P6SM VCSH BKN050=



000
FTUS41 KCTP 210349 AAA
TAFUNV
TAF AMD
KUNV 210349Z 2104/2124 19005KT P6SM SCT050
     FM211500 24007KT P6SM VCSH BKN050=



000
FTUS41 KCTP 210349 AAA
TAFUNV
TAF AMD
KUNV 210349Z 2104/2124 19005KT P6SM SCT050
     FM211500 24007KT P6SM VCSH BKN050=



000
FTUS41 KCTP 210348 AAA
TAFAOO
TAF AMD
KAOO 210348Z 2104/2124 18006KT P6SM FEW060
     FM211500 24008KT P6SM VCSH BKN050=



000
FTUS41 KCTP 210348 AAA
TAFAOO
TAF AMD
KAOO 210348Z 2104/2124 18006KT P6SM FEW060
     FM211500 24008KT P6SM VCSH BKN050=



000
FTUS41 KCTP 210347 AAA
TAFJST
TAF AMD
KJST 210347Z 2104/2124 19008KT P6SM SCT050
     FM211400 24010KT P6SM VCSH OVC040=



000
FTUS41 KCTP 210347 AAA
TAFJST
TAF AMD
KJST 210347Z 2104/2124 19008KT P6SM SCT050
     FM211400 24010KT P6SM VCSH OVC040=



000
FTUS41 KCTP 210344 AAA
TAFBFD
TAF AMD
KBFD 210344Z 2104/2124 18006KT P6SM SCT040
     FM210600 18006KT P6SM BKN020 OVC050
     FM211000 18005KT 6SM BR VCSH BKN008 OVC015
     FM211600 27008KT P6SM BKN040=



000
FTUS41 KCTP 210344 AAA
TAFBFD
TAF AMD
KBFD 210344Z 2104/2124 18006KT P6SM SCT040
     FM210600 18006KT P6SM BKN020 OVC050
     FM211000 18005KT 6SM BR VCSH BKN008 OVC015
     FM211600 27008KT P6SM BKN040=



000
FTUS41 KCTP 210315 AAA
TAFIPT
TAF AMD
KIPT 210315Z 2103/2124 15018G26KT P6SM SCT070
     FM210700 12008KT P6SM SCT060 WS008/20025KT
      TEMPO 2109/2113 2SM BR SCT003
     FM211400 13007KT P6SM BKN045=



000
FTUS41 KCTP 210315 AAA
TAFIPT
TAF AMD
KIPT 210315Z 2103/2124 15018G26KT P6SM SCT070
     FM210700 12008KT P6SM SCT060 WS008/20025KT
      TEMPO 2109/2113 2SM BR SCT003
     FM211400 13007KT P6SM BKN045=



000
FTUS41 KCTP 202324
TAFUNV
TAF
KUNV 202324Z 2100/2124 19005KT P6SM FEW045
     FM211500 23007KT P6SM VCSH BKN050=



000
FTUS41 KCTP 202324
TAFAOO
TAF
KAOO 202324Z 2100/2124 18005KT P6SM FEW060
     FM211500 24008KT P6SM VCSH BKN050=



000
FTUS41 KCTP 202324
TAFBFD
TAF
KBFD 202324Z 2100/2124 18006KT P6SM SCT040
     FM210500 18006KT P6SM BKN040 WS010/22025KT
     FM210900 18005KT 6SM BR VCSH OVC008 WS010/22025KT
     FM211600 27008KT P6SM BKN040=



000
FTUS41 KCTP 202324
TAFJST
TAF
KJST 202324Z 2100/2124 19008KT P6SM SCT050
     FM211400 23010KT P6SM VCSH OVC040=



000
FTUS41 KCTP 202324
TAFIPT
TAF
KIPT 202324Z 2100/2124 14008G16KT P6SM SKC
     FM210700 VRB03KT 2SM BR SCT003 WS008/20025KT
     FM211400 13007KT P6SM BKN045=



000
FTUS41 KCTP 202324
TAFMDT
TAF
KMDT 202324Z 2100/2124 15008KT P6SM SKC
     FM210600 VRB02KT 4SM BR VCFG SKC
     FM210900 VRB02KT 1SM BR VCFG SKC
     FM211400 21006KT P6SM FEW050=



000
FTUS41 KCTP 202324
TAFMDT
TAF
KMDT 202324Z 2100/2124 15008KT P6SM SKC
     FM210600 VRB02KT 4SM BR VCFG SKC
     FM210900 VRB02KT 1SM BR VCFG SKC
     FM211400 21006KT P6SM FEW050=



000
FTUS41 KCTP 202324
TAFUNV
TAF
KUNV 202324Z 2100/2124 19005KT P6SM FEW045
     FM211500 23007KT P6SM VCSH BKN050=



000
FTUS41 KCTP 202324
TAFBFD
TAF
KBFD 202324Z 2100/2124 18006KT P6SM SCT040
     FM210500 18006KT P6SM BKN040 WS010/22025KT
     FM210900 18005KT 6SM BR VCSH OVC008 WS010/22025KT
     FM211600 27008KT P6SM BKN040=



000
FTUS41 KCTP 202324
TAFIPT
TAF
KIPT 202324Z 2100/2124 14008G16KT P6SM SKC
     FM210700 VRB03KT 2SM BR SCT003 WS008/20025KT
     FM211400 13007KT P6SM BKN045=



000
FTUS41 KCTP 202324
TAFAOO
TAF
KAOO 202324Z 2100/2124 18005KT P6SM FEW060
     FM211500 24008KT P6SM VCSH BKN050=



000
FTUS41 KCTP 202324
TAFJST
TAF
KJST 202324Z 2100/2124 19008KT P6SM SCT050
     FM211400 23010KT P6SM VCSH OVC040=



000
FTUS41 KCTP 202154 AAA
TAFMDT
TAF AMD
KMDT 202154Z 2022/2118 17008G15KT P6SM FEW060
     FM210000 16005KT P6SM SKC
     FM210600 VRB02KT 4SM BR VCFG SKC
     FM210900 VRB02KT 1SM BR VCFG SKC
     FM211400 21006KT P6SM FEW050=



000
FTUS41 KCTP 202154 AAA
TAFMDT
TAF AMD
KMDT 202154Z 2022/2118 17008G15KT P6SM FEW060
     FM210000 16005KT P6SM SKC
     FM210600 VRB02KT 4SM BR VCFG SKC
     FM210900 VRB02KT 1SM BR VCFG SKC
     FM211400 21006KT P6SM FEW050=



000
FTUS41 KCTP 202148 AAA
TAFIPT
TAF AMD
KIPT 202148Z 2022/2118 17008G16KT P6SM SKC
     FM210000 13008G16KT P6SM SKC
     FM210700 VRB03KT 2SM BR SCT003 WS008/20025KT
     FM211400 13007KT P6SM BKN045=



000
FTUS41 KCTP 202148 AAA
TAFIPT
TAF AMD
KIPT 202148Z 2022/2118 17008G16KT P6SM SKC
     FM210000 13008G16KT P6SM SKC
     FM210700 VRB03KT 2SM BR SCT003 WS008/20025KT
     FM211400 13007KT P6SM BKN045=



000
FTUS41 KCTP 202135 AAA
TAFUNV
TAF AMD
KUNV 202135Z 2022/2118 20007KT P6SM FEW045
     FM211500 23007KT P6SM VCSH BKN050=



000
FTUS41 KCTP 202135 AAA
TAFUNV
TAF AMD
KUNV 202135Z 2022/2118 20007KT P6SM FEW045
     FM211500 23007KT P6SM VCSH BKN050=



000
FTUS41 KCTP 202128 AAA
TAFAOO
TAF AMD
KAOO 202128Z 2021/2118 17009KT P6SM SCT060
     FM210000 18005KT P6SM FEW060
     FM211500 24008KT P6SM VCSH BKN050=



000
FTUS41 KCTP 202128 AAA
TAFAOO
TAF AMD
KAOO 202128Z 2021/2118 17009KT P6SM SCT060
     FM210000 18005KT P6SM FEW060
     FM211500 24008KT P6SM VCSH BKN050=



000
FTUS41 KCTP 202111 AAA
TAFJST
TAF AMD
KJST 202111Z 2021/2118 20010KT P6SM SCT050
     FM211400 23010KT P6SM VCSH OVC040=



000
FTUS41 KCTP 202111 AAA
TAFJST
TAF AMD
KJST 202111Z 2021/2118 20010KT P6SM SCT050
     FM211400 23010KT P6SM VCSH OVC040=



000
FTUS41 KCTP 202101 AAA
TAFBFD
TAF AMD
KBFD 202101Z 2021/2118 20010G22KT P6SM SCT040
     FM210000 18006KT P6SM SCT050
     FM210500 18006KT P6SM BKN040 WS010/22025KT
     FM210900 18005KT 6SM BR VCSH OVC008 WS010/22025KT
     FM211600 24008KT P6SM BKN040=



000
FTUS41 KCTP 202101 AAA
TAFBFD
TAF AMD
KBFD 202101Z 2021/2118 20010G22KT P6SM SCT040
     FM210000 18006KT P6SM SCT050
     FM210500 18006KT P6SM BKN040 WS010/22025KT
     FM210900 18005KT 6SM BR VCSH OVC008 WS010/22025KT
     FM211600 24008KT P6SM BKN040=



000
FTUS41 KCTP 201732
TAFAOO
TAF
KAOO 201732Z 2018/2118 19010G18KT P6SM SCT045
     FM202200 18009G15KT P6SM BKN040 WS010/18032KT
     FM210900 12003KT 4SM BR BKN050
     FM211500 23007KT P6SM VCSH BKN050=



000
FTUS41 KCTP 201732
TAFIPT
TAF
KIPT 201732Z 2018/2118 20008G20KT P6SM SCT045
     FM202200 16010G17KT P6SM SCT030 WS010/17030KT
     FM210900 12003KT 4SM BR OVC003
     FM211600 23007KT P6SM VCSH BKN050=



000
FTUS41 KCTP 201732
TAFMDT
TAF
KMDT 201732Z 2018/2118 18006G18KT P6SM SCT035 BKN080
     FM202300 14006KT P6SM SCT040
     FM210500 12004KT 6SM -DZ BR OVC010
     FM211500 22006KT P6SM BKN100=



000
FTUS41 KCTP 201732
TAFBFD
TAF
KBFD 201732Z 2018/2118 20009G18KT P6SM BKN025 BKN035
     FM201900 20010G22KT P6SM SCT025 BKN035
     FM210200 19008G14KT P6SM OVC025 WS013/20031KT
     FM210500 20010G18KT 6SM BR VCSH BKN013 OVC023
     FM211500 23007KT P6SM OVC035=



000
FTUS41 KCTP 201732
TAFUNV
TAF
KUNV 201732Z 2018/2118 21010G18KT P6SM SCT025 BKN040
     FM202200 18009G15KT P6SM BKN040 WS010/18032KT
     FM210900 12003KT 4SM BR OVC012
     FM211600 23007KT P6SM VCSH BKN050=



000
FTUS41 KCTP 201732
TAFJST
TAF
KJST 201732Z 2018/2118 22009G18KT P6SM BKN045 BKN200
     FM202300 17007KT P6SM SCT250
     FM211400 23010KT P6SM VCSH OVC050=



000
FTUS41 KCTP 201732
TAFJST
TAF
KJST 201732Z 2018/2118 22009G18KT P6SM BKN045 BKN200
     FM202300 17007KT P6SM SCT250
     FM211400 23010KT P6SM VCSH OVC050=



000
FTUS41 KCTP 201732
TAFIPT
TAF
KIPT 201732Z 2018/2118 20008G20KT P6SM SCT045
     FM202200 16010G17KT P6SM SCT030 WS010/17030KT
     FM210900 12003KT 4SM BR OVC003
     FM211600 23007KT P6SM VCSH BKN050=



000
FTUS41 KCTP 201732
TAFAOO
TAF
KAOO 201732Z 2018/2118 19010G18KT P6SM SCT045
     FM202200 18009G15KT P6SM BKN040 WS010/18032KT
     FM210900 12003KT 4SM BR BKN050
     FM211500 23007KT P6SM VCSH BKN050=



000
FTUS41 KCTP 201732
TAFBFD
TAF
KBFD 201732Z 2018/2118 20009G18KT P6SM BKN025 BKN035
     FM201900 20010G22KT P6SM SCT025 BKN035
     FM210200 19008G14KT P6SM OVC025 WS013/20031KT
     FM210500 20010G18KT 6SM BR VCSH BKN013 OVC023
     FM211500 23007KT P6SM OVC035=



000
FTUS41 KCTP 201732
TAFUNV
TAF
KUNV 201732Z 2018/2118 21010G18KT P6SM SCT025 BKN040
     FM202200 18009G15KT P6SM BKN040 WS010/18032KT
     FM210900 12003KT 4SM BR OVC012
     FM211600 23007KT P6SM VCSH BKN050=



000
FTUS41 KCTP 201732
TAFMDT
TAF
KMDT 201732Z 2018/2118 18006G18KT P6SM SCT035 BKN080
     FM202300 14006KT P6SM SCT040
     FM210500 12004KT 6SM -DZ BR OVC010
     FM211500 22006KT P6SM BKN100=



000
FTUS41 KCTP 201640 AAA
TAFMDT
TAF AMD
KMDT 201640Z 2017/2112 19012G18KT P6SM SCT030 SCT080
     FM202300 14006KT P6SM SCT040
     FM210500 12004KT 6SM -DZ BR OVC010=



000
FTUS41 KCTP 201640 AAA
TAFBFD
TAF AMD
KBFD 201640Z 2017/2112 20009G18KT P6SM OVC015
     FM201830 20010G22KT P6SM BKN035
     FM210200 19008G14KT P6SM OVC025 WS013/20031KT
     FM210500 20010G18KT 6SM BR VCSH BKN013 OVC023=



000
FTUS41 KCTP 201640 AAA
TAFJST
TAF AMD
KJST 201640Z 2017/2112 21008G18KT P6SM SCT045
     FM201830 22011G19KT P6SM BKN050
     FM202200 18009G15KT P6SM BKN035=



000
FTUS41 KCTP 201640 AAA
TAFUNV
TAF AMD
KUNV 201640Z 2017/2112 20012G18KT P6SM SCT025 BKN040
     FM202200 18009G15KT P6SM BKN040 WS010/18032KT=



000
FTUS41 KCTP 201640 AAA
TAFMDT
TAF AMD
KMDT 201640Z 2017/2112 19012G18KT P6SM SCT030 SCT080
     FM202300 14006KT P6SM SCT040
     FM210500 12004KT 6SM -DZ BR OVC010=



000
FTUS41 KCTP 201640 AAA
TAFBFD
TAF AMD
KBFD 201640Z 2017/2112 20009G18KT P6SM OVC015
     FM201830 20010G22KT P6SM BKN035
     FM210200 19008G14KT P6SM OVC025 WS013/20031KT
     FM210500 20010G18KT 6SM BR VCSH BKN013 OVC023=



000
FTUS41 KCTP 201640 AAA
TAFIPT
TAF AMD
KIPT 201640Z 2017/2112 17012G24KT P6SM SCT045 BKN060 WS018/18032KT
     FM201730 18012G22KT P6SM SCT023 BKN045
     FM202200 16010G17KT P6SM SCT030 WS010/17030KT=



000
FTUS41 KCTP 201640 AAA
TAFIPT
TAF AMD
KIPT 201640Z 2017/2112 17012G24KT P6SM SCT045 BKN060 WS018/18032KT
     FM201730 18012G22KT P6SM SCT023 BKN045
     FM202200 16010G17KT P6SM SCT030 WS010/17030KT=



000
FTUS41 KCTP 201640 AAA
TAFAOO
TAF AMD
KAOO 201640Z 2017/2112 19009G14KT P6SM SCT025
     FM201800 18012G18KT P6SM SCT025 BKN050
     FM202200 18009G15KT P6SM BKN040 WS010/18032KT=



000
FTUS41 KCTP 201640 AAA
TAFJST
TAF AMD
KJST 201640Z 2017/2112 21008G18KT P6SM SCT045
     FM201830 22011G19KT P6SM BKN050
     FM202200 18009G15KT P6SM BKN035=



000
FTUS41 KCTP 201640 AAA
TAFAOO
TAF AMD
KAOO 201640Z 2017/2112 19009G14KT P6SM SCT025
     FM201800 18012G18KT P6SM SCT025 BKN050
     FM202200 18009G15KT P6SM BKN040 WS010/18032KT=



000
FTUS41 KCTP 201640 AAA
TAFUNV
TAF AMD
KUNV 201640Z 2017/2112 20012G18KT P6SM SCT025 BKN040
     FM202200 18009G15KT P6SM BKN040 WS010/18032KT=



    US Dept of Commerce
    National Oceanic and Atmospheric Administration
    National Weather Service
    1325 East West Highway
    Silver Spring, MD 20910
    Page Author: NWS Internet Services Team
Disclaimer
Information Quality
Credits
Glossary
Privacy Policy
Freedom of Information Act (FOIA)
About Us
Career Opportunities